【METAR】 空港の天気 【TAF】 [無断転載禁止]©2ch.net

1名無しSUN2016/05/30(月) 23:17:28.89ID:SlFWcLbl
ここで調べて近くの空港の天気を貼りつけましょう

空港の天気
https://www.time-j.net/Metar/Japan

METARの読み方
https://www.time-j.net/Metar/HowToRead

2名無しSUN2016/05/30(月) 23:24:34.87ID:SlFWcLbl
中部国際空港23時
RJGG 301400Z 15007KT 9999 VCSH FEW010 SCT020 BKN045 20/17 Q1006 NOSIG

名古屋飛行場(小牧)23時
RJNA 301400Z 19006KT 9999 FEW015 SCT030 BKN050 21/18 Q1006 RMK
1CU015 4SC030 6SC050 A2971=

3名無しSUN2016/05/31(火) 00:08:44.38ID:HwXeTIwb
中部国際空港23時30分
RJGG 301430Z 14005KT 9999 -SHRA SCT010 BKN020 20/17 Q1006 TEMPO FEW008 BKN012

4名無しSUN2016/05/31(火) 10:32:44.69ID:HwXeTIwb
METAR RJNA 310100Z 27003KT 220V020 9999 FEW030 SCT040 BKN230 24/16
Q1006 RMK 1CU030 3SC040 A2971=

3000フィート(900m)の高さに全天の1/8の雲量のCU(積雲)
4000フィート(1200m)の高さに全天の3/8の雲量のSC(層積雲)

5名無しSUN2016/05/31(火) 11:38:33.68ID:HwXeTIwb
METAR RJNA 310200Z VRB03KT 9999 FEW030 SCT040 BKN280 25/15 Q1005 RMK
1CU030 3SC040 A2969=

VRB03KT 風向不定3ノット(1.5m/s)

6名無しSUN2016/05/31(火) 12:28:59.33ID:HwXeTIwb
METAR RJNA 310300Z 01004KT 330V090 9999 FEW030 BKN280 26/16 Q1004 RMK
1CU030 A2967=

01004KT 北から時計回りに10度の方角の風4ノット(2m/s)

7名無しSUN2016/05/31(火) 13:17:23.84ID:HwXeTIwb
05/31 13:00
METAR RJNA 310400Z 29005KT 230V360 9999 FEW030 BKN280 28/14 Q1004 RMK
1CU030 A2965=

8名無しSUN2016/05/31(火) 16:26:56.67ID:HwXeTIwb
05/31 16:00
METAR RJNA 310700Z 30008KT 260V340 9999 FEW030 BKN280 30/11 Q1002 RMK
1CU030 A2960=

今日30度超え

9名無しSUN2016/05/31(火) 20:53:07.89ID:HwXeTIwb
RJNA 311117Z 30005KT 9999 FEW030 SCT040 BKN/// 26/16 Q1003 RMK
1CU030 3CU040 A2963=

10名無しSUN2016/05/31(火) 21:41:07.32ID:HwXeTIwb
05/31 21:00
METAR RJNA 311200Z 33009KT 9999 FEW030 SCT040 BKN/// 25/15 Q1003 RMK
1CU030 3CU040 A2964=

雲が多くてちょっと火星は無理です

11名無しSUN2016/06/01(水) 13:46:57.29ID:7i5XA0fn
06/01 13:00
METAR RJNA 010400Z 28018G28KT 9999 FEW040 BKN230 24/09 Q1001 RMK
1SC040 A2956=

4000フィート(1200m)の高さに全天の1/8の雲量のSC(層積雲)

12名無しSUN2016/06/01(水) 16:36:46.12ID:7i5XA0fn
06/01 16:00
METAR RJNA 010700Z 30018KT 9999 FEW040 BKN230 24/08 Q1000 RMK 1SC040
A2956 MAX WIND 25KT=

MAX WIND 25KT 最大風速25ノット(12.5m/s) 今日は風が強い

13名無しSUN2016/06/03(金) 15:57:09.32ID:EZvGS9Dl
06/03 15:00
METAR RJNA 030600Z 22006KT 140V280 9999 FEW030 SCT060 26/11 Q1011 RMK
1CU030 3SC060 A2986=

14名無しSUN2016/06/03(金) 20:12:03.80ID:EZvGS9Dl
06/03 19:00
METAR RJNA 031000Z 18008KT 150V210 9999 FEW030 BKN250 23/08 Q1012 RMK
1CU030 A2990=

15名無しSUN2016/06/04(土) 14:12:27.42ID:Zzgtd1Kr
06/04 13:00
METAR RJNA 040400Z 21005KT 160V310 9999 FEW025 BKN040 BKN180 25/14
Q1012 RMK 1CU025 5SC040 7AC180 A2989=

1CU025 全天の1/8のCU(積雲)が2500フィート(750m)にある
5SC040 全天の5/8のSC(層積雲)が4000フィート(1200m)にある
7AC180 全天の7/8のAC(高積雲)が18000フィート(5400m)にある

16名無しSUN2016/06/04(土) 14:27:50.81ID:Zzgtd1Kr
06/04 14:00
METAR RJNA 040500Z 18009KT 140V210 9999 FEW025 BKN040 BKN180 25/14
Q1011 RMK 1CU025 5SC040 7AC180 A2988=

17名無しSUN2016/06/08(水) 01:55:07.16ID:oBUbX6Iu
06/08 01:00
METAR RJNA 071600Z VRB02KT 9999 FEW015 SCT025 BKN050 19/17 Q1013 RMK
1CU015 3CU025 7SC050 A2993=

1CU015 全天の1/8のCU(積雲)が1500フィート(450m)にある
3CU025 全天の3/8のCU(積雲)が2500フィート(750m)にある
7SC050 全天の7/8のSC(層積雲)が5000フィート(1500m)にある

18名無しSUN2016/06/08(水) 13:24:45.16ID:oBUbX6Iu
METAR RJNA 080400Z VRB04KT 9999 FEW030 BKN250 27/16 Q1011 RMK 1CU030
A2986=

19名無しSUN2016/06/08(水) 21:27:12.61ID:oBUbX6Iu
06/08 21:00
METAR RJNA 081200Z 22006KT 180V260 9999 FEW020 BKN040 BKN/// 23/18
Q1012 RMK 1CU020 5SC040 A2990=

20名無しSUN2016/06/09(木) 02:09:18.01ID:DfXF0E5H
06/09 01:00
METAR RJNA 081600Z 30004KT 260V320 9999 FEW015 SCT025 BKN060 22/19
Q1011 RMK 1CU015 3CU025 5SC060 A2988=

21名無しSUN2016/06/11(土) 01:02:26.72ID:8t+Pcsm7
06/11 00:00
METAR RJNA 101500Z 19005KT 160V220 9999 FEW030 23/16 Q1015 RMK 1CU030
A2998=

RJGG 101530Z 10003KT 040V140 9999 FEW010 BKN020 22/18 Q1015 BECMG 04005KT

梅雨なのに晴れてます

22名無しSUN2016/06/12(日) 17:16:44.41ID:CsxZkW94
06/12 17:00
METAR RJNA 120800Z 17006KT 130V210 9999 -RA FEW020 SCT030 BKN050
26/19 Q1008 RMK 1CU020 3CU030 5SC050 A2978=

-RA 弱い雨

23名無しSUN2016/06/15(水) 02:30:40.72ID:1NxBE3QA
06/15 02:00
METAR RJNA 141700Z 09003KT 9999 FEW020 BKN030 BKN045 23/19 Q1007 RMK
1CU020 5CU030 5SC045 A2974=

曇つてます

24名無しSUN2016/06/15(水) 07:35:04.44ID:1NxBE3QA
06/15 07:02
RJNA 142202Z 14006KT 9999 -SHRA FEW015 SCT020 BKN030 23/19
Q1008 RMK 1CU015 3CU020 7CU030 A2978=

CU(積雲)だらけ
目視だと雨雲のような気がするんだけどね

25名無しSUN2016/06/16(木) 22:42:56.86ID:A3+LYOmJ
06/16 21:00
METAR RJNA 161200Z 32008KT 3500 -RA BR FEW004 BKN006 BKN015 21/20
Q1001 RMK 2ST004 5ST006 5SC015 A2956=

2ST004 全天の2/8のST(層雲・霧雲)が400フィート(120m)にある
5ST006 全天の5/8のST(層雲・霧雲)が600フィート(180m)にある
5SC015 全天の5/8のSC(層積雲・曇り雲)が1500フィート(450m)にある

26名無しSUN2016/06/16(木) 22:45:14.07ID:A3+LYOmJ
06/16 22:00
METAR RJNA 161300Z 33007KT 4000 -RA BR FEW004 BKN006 BKN020 21/20
Q1001 RMK 2ST004 5ST006 7SC020 A2957=

2ST004 全天の2/8のST(層雲・霧雲)が400フィート(120m)にある
5ST006 全天の5/8のST(層雲・霧雲)が600フィート(180m)にある
7SC020 全天の7/8のSC(層積雲・曇り雲)が2000フィート(600m)にある

27名無しSUN2016/06/18(土) 22:00:04.80ID:FVcNb4+j
06/18 21:00
METAR RJNA 181200Z 16006KT 9999 FEW030 BKN/// 26/16 Q1014 RMK 1CU030
A2995=

よく晴れております

28名無しSUN2016/06/22(水) 08:10:55.36ID:9IZphzH/
06/22 07:00
METAR RJNA 212200Z VRB02KT 9000 FEW030 BKN070 BKN110 24/20 Q1008 RMK
1CU030 6AC070 7AC110 A2979=

1CU030 全天の1/8のCU(積雲)が3000フィート(900m)にある
6AC070 全天の6/8のAC(高積雲)が7000フィート(2100m)にある
7AC110 全天の7/8のAC(高積雲)が11000フィート(3300m)にある

29名無しSUN2016/06/22(水) 08:13:53.96ID:9IZphzH/
06/22 08:00
METAR RJNA 212300Z VRB02KT 9000 FEW015 BKN070 BKN120 25/20 Q1008 RMK
2CU015 6AC070 7AC120 A2979=

よく曇っております

30名無しSUN2016/06/24(金) 14:33:39.45ID:6723DOAL
06/24 13:00
METAR RJNA 240400Z 31004KT 260V020 9999 -RA FEW025 BKN080 OVC150
26/18 Q1006 RMK 1CU025 5AC080 8AS150 A2971=

1CU025 全天の1/8のCU(積雲)が2500フィート(750m)にある
5AC080 全天の5/8のAC(高積雲)が8000フィート(2400m)にある
8AS150 全天の8/8のAS(高層雲)が15000フィート(4500m)にある

31名無しSUN2016/06/24(金) 14:39:27.23ID:6723DOAL
06/24 14:00
METAR RJNA 240500Z 32003KT 280V030 9000 -SHRA FEW015 BKN025 BKN080
25/19 Q1005 RMK 2CU015 5CU025 7AC080 A2969=

2CU015 全天の2/8のCU(積雲)が1500フィート(450m)にある
5CU025 全天の5/8のCU(積雲)が2500フィート(750m)にある
7AC080 全天の7/8のAC(高積雲)が8000フィート(2400m)にある

32名無しSUN2016/06/26(日) 22:59:27.10ID:dCsqDBU+
06/26 22:28
RJNA 261328Z 29003KT 240V330 9999 FEW030 BKN100 24/16 Q1011
RMK 1CU030 5AC100 A2986=

1CU030 全天の1/8のCU(積雲)が3000フィート(900m)にある
5AC100 全天の5/8のAC(高積雲)が10000フィート(3000m)にある

33名無しSUN2016/07/02(土) 22:12:24.36ID:X850LoJc
07/02 22:00
METAR RJNA 021300Z 27003KT 230V300 9999 FEW030 BKN/// 31/24 Q1010 RMK
1CU030 A2983=

まだ31度もある

34名無しSUN2016/07/05(火) 14:32:14.76ID:DPpDUS6L
07/05 14:00
METAR RJNA 050500Z 17012KT 140V210 9999 SCT035 SCT250 34/24 Q1014 RMK
3CU035 A2997=

暑くなってまいりました。
34/24 気温34度 露点温度24度
湿度に換算すると大体55%

湿度露点温度換算
http://www.sky-net.or.jp/hige/roten-fukai/rotenondo.htm
逆引きしなきゃならんので、適当に湿度入れて露点合わせてください

35名無しSUN2016/07/09(土) 00:18:20.29ID:oTxFNt6T
07/08 23:00
METAR RJNA 081400Z 17005KT 8000 -RA FEW030 BKN050 OVC100 26/24 Q1012
RMK 1CU030 5SC050 8AS100 A2990=

1CU030 全天の1/8のCU(積雲)が3000フィート(900m)にある
5SC050 全天の5/8のSC(層積雲・くもり雲)が5000フィート(1500m)にある
8AS100 全天の8/8のAS(高層雲・おぼろ雲)が10000フィート(3000m)にある

36名無しSUN2016/07/12(火) 01:11:08.02ID:rKEm/vdn
07/12 00:27
RJNA 111527Z 35004KT 9999 FEW030 BKN160 BKN/// 27/17 Q1004 RMK
1CU030 5AC160 A2968=

35004KT 北から時計回りに350度の方向の風(ほぼ北)4ノット(8m)
今夜は北風が気持ちいい

37名無しSUN2016/07/12(火) 01:19:19.84ID:rKEm/vdn
失礼しました。
1ノットは1852m/h(0.5m/s)
4ノットは約2m/sでした。
失礼しました。

38名無しSUN2016/07/15(金) 17:47:38.01ID:d9vDMrsv
07/15 17:00
METAR RJNA 150800Z 29012KT 9999 FEW020 SCT070 28/20 Q0999 RMK 1CU020
3AC070 A2951=

今日は晴れてゝも日陰がさわやか

39名無しSUN2016/07/20(水) 11:47:19.15ID:w1agHxB2
07/20 11:00
METAR RJNA 200200Z VRB03KT 9999 FEW030 BKN280 30/19 Q1010 RMK 1CU030
A2984=

40名無しSUN2016/07/21(木) 23:39:48.04ID:McUrOVrk
07/21 23:00
METAR RJNA 211400Z 16008KT 9999 FEW020 SCT030 BKN045 26/22 Q1010 RMK
1CU020 3CU030 6SC045 A2985=

今夜は涼しい

41名無しSUN2016/07/23(土) 22:39:33.50ID:+3pQTvRV
07/23 22:00
METAR RJNA 231300Z 16009KT 9999 FEW015 BKN045 BKN/// 24/19 Q1014 RMK
1CU015 5SC045 A2996=

今夜はもっと涼しい

42名無しSUN2016/07/24(日) 21:12:30.48ID:exkyOJAL
07/24 21:00
METAR RJNA 241200Z 17010KT 9999 FEW030 BKN/// 25/20 Q1014 RMK 1CU030
A2995=

今夜はちと暑い

43名無しSUN2016/07/27(水) 00:59:34.62ID:9tRXeepQ
07/27 00:00
METAR RJNA 261500Z 32004KT 7000 FEW005 BKN015 23/22 Q1009 RMK 1ST005
7CU015 A2982=

1ST005 全天の1/8のST(層雲・霧雲)が500フィート(150m)にある
7CU015 全天の7/8のCU(積雲)が1500フィート(450m)にある

今日は涼しい

44名無しSUN2016/07/27(水) 22:51:11.77ID:9tRXeepQ
07/27 22:00
METAR RJNA 271300Z 18008KT 9999 FEW020 BKN040 26/23 Q1010 RMK 1CU020
7SC040 A2985=

1CU020 全天の1/8のCU(積雲)が2000フィート(600m)にある
7SC040 全天の7/8のSC(層積雲・曇り雲)が4000フィート(1200m)にある

今夜は蒸し暑い
7月21日と同じ気温だけど、ここ2-3日涼しかったから、こたえるね。

45名無しSUN2016/07/28(木) 21:40:27.54ID:B9l98L5i
07/28 21:00
METAR RJNA 281200Z 18009KT 9999 SCT030 SCT070 27/21 Q1012 RMK 4CU030
3AC070 A2991=

4CU030 全天の4/8のCU(積雲)が3000フィート(900m)にある
3AC070 全天の3/8のAC(高積雲・ひつじ雲)が7000フィート(2100m)にある

今夜は昨夜より暑い。1度違うだけだが30度近辺で1度の差は大きい

46名無しSUN2016/07/29(金) 07:50:15.55ID:wFooc9Iw
07/29 07:00
METAR RJNA 282200Z VRB02KT 9999 FEW005 SCT250 26/22 Q1013 RMK 1ST005
A2994=

1ST005 全天の1/8のST(層雲・霧雲)が500フィート(150m)にある

今朝は朝から暑い

47名無しSUN2016/07/29(金) 21:04:19.52ID:wFooc9Iw
07/29 20:00
METAR RJNA 291100Z 17009KT 9999 FEW030 BKN070 28/22 Q1012 RMK 1CU030
6AC070 A2991=

48名無しSUN2016/07/30(土) 10:09:31.91ID:5epqzBkT
07/30 10:00
METAR RJNA 300100Z 28004KT 180V330 9999 FEW025 SCT100 BKN150 29/22
Q1013 RMK 1CU025 3AC100 5AC150 A2994=

1CU025 全天の1/8のCU(積雲)が2500フィート(750m)にある
3AC100 全天の3/8のAC(高積雲・ひつじ雲)が10000フィート(3000m)にある
5AC150 全天の5/8のAC(高積雲・ひつじ雲)が15000フィート(4500m)にある

49名無しSUN2016/07/30(土) 21:22:48.77ID:5epqzBkT
07/30 21:00
METAR RJNA 301200Z 16008KT 140V200 9999 FEW030 BKN100 29/20 Q1012 RMK
1CU030 6AC100 A2990=

1CU030 全天の1/8のCU(積雲)が3000フィート(900m)にある
6AC100 全天の6/8のAC(高積雲・ひつじ雲)が10000フィート(3000m)にある

50名無しSUN2016/07/31(日) 20:45:16.85ID:yUzYkQWV
07/31 20:00
METAR RJNA 311100Z 33003KT 9999 FEW030 SCT/// 27/22 Q1009 RMK 1CU030
A2981=

夕立があったものの涼しくならず

51名無しSUN2016/08/02(火) 07:39:44.14ID:4O1SAOUz
08/02 07:00
METAR RJNA 012200Z 34006KT 9999 FEW025 BKN250 25/23 Q1008 RMK 1CU025
A2977=

52名無しSUN2016/08/02(火) 22:06:01.10ID:4O1SAOUz
08/02 21:00
METAR RJNA 021200Z 01002KT 9999 FEW015 BKN040 24/22 Q1008 RMK 1CU015
7SC040 A2977=

今夜はあれだけ降ったからなんとかエアコンなしですごせる

53名無しSUN2016/08/04(木) 05:16:15.81ID:vvJX65lO
08/04 05:00
METAR RJNA 032000Z 06002KT 9999 FEW015 BKN025 26/23 Q1009 RMK 1CU015
5CU025 A2980=

今朝はむしあつい

54名無しSUN2016/08/05(金) 11:49:25.55ID:JQQZZoF7
08/05 11:00
METAR RJNA 050200Z VRB02KT 9999 FEW025 32/23 Q1009 RMK 2CU025 A2982=

55名無しSUN2016/08/05(金) 21:28:16.43ID:JQQZZoF7
08/05 21:00
METAR RJNA 051200Z 15009KT 120V190 9999 FEW030 SCT120 29/23 Q1010 RMK
1CU030 3AC120 A2984 LIGHTNING NE-E=

暑い
LIGHTNING NE-E 雷? 北東-東

56名無しSUN2016/08/06(土) 10:03:00.99ID:E+A17MMQ
08/06 09:00
METAR RJNA 060000Z 01003KT 330V050 9999 FEW020 SCT270 30/24 Q1009 RMK
2CU020 A2980=

57名無しSUN2016/08/06(土) 20:37:31.72ID:E+A17MMQ
08/06 20:00
METAR RJNA 061100Z 16006KT 130V200 9999 FEW030 BKN/// 30/23 Q1008 RMK
1CU030 A2978=

58名無しSUN2016/08/07(日) 07:44:24.47ID:b5x1i6yz
08/07 07:00
METAR RJNA 062200Z 04003KT 010V080 9999 FEW020 SCT030 BKN050 28/24
Q1009 RMK 2CU020 4CU030 7SC050 A2981=

2CU020 全天の2/8のCU(積雲)が2000フィート(600m)にある
4CU030 全天の4/8のCU(積雲)が3000フィート(900m)にある
7SC050 全天の7/8のSC(層積雲・曇り雲)が5000フィート(1500m)にある

59名無しSUN2016/08/07(日) 23:52:32.57ID:b5x1i6yz
08/07 23:25
RJNA 071425Z VRB01KT 9999 FEW030 BKN050 29/22 Q1008 RMK 1CU030
5SC050 A2977=

60名無しSUN2016/08/08(月) 07:43:09.39ID:YhraJowc
08/08 07:00
METAR RJNA 072200Z 36004KT 320V030 9999 FEW030 28/24 Q1005 RMK 1CU030
A2968=

61名無しSUN2016/08/09(火) 11:38:51.84ID:qIIEhZa5
08/09 11:00
METAR RJNA 090200Z 33013KT 280V360 9999 FEW030 SCT050 35/22 Q1003 RMK
1CU030 3SC050 A2963 MAX WIND 20KT=

暑い

62名無しSUN2016/08/09(火) 22:01:27.63ID:qIIEhZa5
08/09 21:00
METAR RJNA 091200Z 31012KT 9999 FEW040 29/20 Q1005 RMK 1SC040 A2971=

63名無しSUN2016/08/10(水) 19:30:15.87ID:B6+mEY1i
08/10 19:00
METAR RJNA 101000Z 29009KT 260V320 9999 FEW030 BKN230 29/20 Q1006 RMK
1CU030 A2973=

64名無しSUN2016/08/11(木) 15:05:19.39ID:gUx21Ll7
08/11 15:00
METAR RJNA 110600Z VRB03KT 9999 FEW030 BKN250 35/19 Q1006 RMK 1CU030
A2972=

65名無しSUN2016/08/14(日) 09:24:01.71ID:72hlYMBa
08/14 09:00
METAR RJNA 140000Z 20003KT 130V280 9999 FEW020 BKN035 29/23 Q1005 RMK
1CU020 5SC035 A2970=

66名無しSUN2016/08/15(月) 08:38:56.10ID:e3895RcL
08/15 08:00
METAR RJNA 142300Z VRB02KT 9999 FEW015 SCT030 BKN060 28/23 Q1002 RMK
2CU015 3CU030 7SC060 A2961=

67名無しSUN2016/08/16(火) 09:03:08.87ID:NKimbtmC
08/16 08:00
METAR RJNA 152300Z 36004KT 330V030 9999 FEW030 SCT100 28/23 Q1002 RMK
1CU030 3AC100 A2961=

68名無しSUN2016/08/17(水) 20:40:36.01ID:CuctclXP
08/17 20:00
METAR RJNA 171100Z 30006KT 9999 FEW030 BKN090 31/23 Q1001 RMK 1CU030
6AC090 A2958=

8月も半ばすぎて地味に暑いね

69名無しSUN2016/08/19(金) 08:19:58.98ID:xH9UkWn0
08/19 08:00
METAR RJNA 182300Z 06003KT 020V170 9999 FEW020 30/24 Q1006 RMK 1CU020
A2973=

70名無しSUN2016/08/19(金) 14:16:42.66ID:xH9UkWn0
08/19 14:00
METAR RJNA 190500Z 20006KT 150V240 9999 FEW030 SCT230 35/24 Q1004 RMK
1CU030 A2965=

今日も相変わらずですね

71名無しSUN2016/08/20(土) 09:52:50.36ID:LEq2bsGH
08/20 09:00
METAR RJNA 200000Z 30005KT 280V360 9999 FEW030 31/24 Q1004 RMK 1CU030
A2966=

72名無しSUN2016/08/21(日) 07:49:53.87ID:ZBF9R6Tz
08/21 07:00
METAR RJNA 202200Z VRB01KT 9999 FEW008 27/22 Q1005 RMK 1ST008 A2969=

昨夜雨降ったのでいくらかまし

73名無しSUN2016/08/21(日) 21:26:51.30ID:ZBF9R6Tz
08/21 21:00
METAR RJNA 211200Z 24006KT 200V260 9999 FEW030 BKN035 30/25 Q1004 RMK
1CU030 5CU035 A2967=

74名無しSUN2016/08/23(火) 11:00:41.51ID:bs/FlWd7
08/23 10:24
RJNA 230124Z 31005KT 270V010 9999 FEW030 SCT130 34/22 Q1004
RMK 1CU030 3AC130 A2965=

75名無しSUN2016/08/23(火) 11:42:31.32ID:bs/FlWd7
08/23 11:11
RJNA 230211Z VRB04KT 9999 FEW040 BKN140 33/21 Q1003 RMK 1SC040
5AC140 A2965=

76名無しSUN2016/08/25(木) 10:56:45.06ID:xNao9Isr
08/25 10:11
RJNA 250111Z 23003KT 190V280 9999 FEW015 SCT030 BKN060 29/24
Q1008 RMK 1CU015 3CU030 6SC060 A2978=

今日はいくらかまし

77名無しSUN2016/08/28(日) 21:12:34.94ID:VyQbUXQ4
08/28 21:00
METAR RJNA 281200Z VRB02KT 9999 FEW030 BKN180 26/24 Q0996 RMK 1CU030
5AC180 A2943=

今日は涼しいからセミ鳴かない

78名無しSUN2016/08/30(火) 20:36:51.86ID:EtMVxCuc
08/30 20:00
METAR RJNA 301100Z 29004KT 240V320 9999 FEW025 25/16 Q0992 RMK 1CU025
A2931=

今夜も涼しい コオロギころころ

79名無しSUN2016/09/01(木) 15:05:21.43ID:gBNpS404
09/01 14:00
METAR RJNA 010500Z 23006KT 190V270 9999 FEW030 SCT250 32/15 Q1007 RMK
1CU030 A2974=

今日は地味に暑い

80名無しSUN2016/09/01(木) 21:22:25.34ID:gBNpS404
09/01 21:00
METAR RJNA 011200Z 17007KT 140V200 9999 FEW030 SCT/// 28/20 Q1010 RMK
1CU030 A2983=

今晩も地味に暑い

81名無しSUN2016/09/03(土) 10:23:36.49ID:06rF6AU+
09/03 10:00
METAR RJNA 030100Z 36004KT 300V060 9999 FEW025 SCT080 30/22 Q1012 RMK
1CU025 4AC080 A2990=

82名無しSUN2016/09/04(日) 20:16:54.82ID:dSNAekhu
09/04 20:00
METAR RJNA 041100Z 17007KT 9999 FEW030 29/23 Q1014 RMK 1CU030 A2995=

83名無しSUN2016/09/05(月) 08:12:56.36ID:bYba3Qtb
09/05 07:30
RJNA 042230Z 34003KT 9999 FEW010 SCT050 BKN060 25/22 Q1013 RMK
1CU010 4SC050 7SC060 A2993=

84名無しSUN2016/09/06(火) 21:45:25.41ID:JFHdveTx
09/06 21:00
METAR RJNA 061200Z 17006KT 150V210 9999 FEW015 BKN060 28/24 Q1007 RMK
1CU015 5SC060 A2975=

85名無しSUN2016/09/07(水) 20:11:05.76ID:rhFXAbZC
09/07 19:00
METAR RJNA 071000Z 16011KT 9999 FEW030 BKN/// 29/24 Q1003 RMK 2CU030
A2963=

86名無しSUN2016/09/09(金) 05:31:18.79ID:QiKa5t/+
09/09 05:00
METAR RJNA 082000Z 33006KT 300V020 9999 FEW030 SCT/// 22/19 Q1004 RMK
1CU030 A2967=

寒くなった

87名無しSUN2016/09/09(金) 20:12:14.05ID:QiKa5t/+
09/09 19:00
METAR RJNA 091000Z 31013KT 9999 FEW040 26/17 Q1007 RMK 1SC040 A2974=

88名無しSUN2016/09/09(金) 20:13:57.55ID:QiKa5t/+
09/09 20:00
METAR RJNA 091100Z 30011KT 9999 FEW040 25/18 Q1008 RMK 1SC040 A2977=

89名無しSUN2016/09/11(日) 20:41:41.78ID:C8ealVYV
09/11 20:00
METAR RJNA 111100Z 22003KT 9999 FEW030 BKN180 BKN/// 27/21 Q1014 RMK
1CU030 6AC180 A2996=

90名無しSUN2016/09/13(火) 07:00:29.23ID:MOE9bpOK
09/13 06:12
RJNA 122112Z VRB02KT 6000 SCT003 BKN008 BKN030 23/23 Q1013 RMK
3ST003 5ST008 7CU030 A2992=

3ST003 全天の3/8のST(層雲・霧雲)が300フィート(90m)にある
5ST008 全天の5/8のST(層雲・霧雲)が800フィート(240m)にある
7CU030 全天の7/8のCU(積雲・ひつじ雲)が3000フィート(900m)にある

91名無しSUN2016/09/13(火) 14:36:11.01ID:MOE9bpOK
09/13 14:00
METAR RJNA 130500Z 20003KT 160V230 9999 FEW005 BKN030 BKN100 27/24
Q1013 RERA RMK 1ST005 5CU030 5AC100 A2992=

92名無しSUN2016/09/16(金) 06:03:36.70ID:rV4t7vzw
09/16 05:38
RJNA 152038Z VRB01KT 9999 -SHRA FEW010 BKN025 BKN050 23/21
Q1015 RMK 2ST010 5CU025 7SC050 A2999=

93名無しSUN2016/09/17(土) 10:55:00.84ID:zrgWc3YB
METAR RJNA 170100Z VRB01KT 9999 FEW020 SCT030 BKN070 27/22 Q1014 RMK
1CU020 4CU030 5AC070 A2996=

94名無しSUN2016/09/21(水) 08:52:21.64ID:G9GPBfOL
09/21 08:00
METAR RJNA 202300Z VRB01KT 8000 -SHRA FEW010 BKN030 BKN040 22/20
Q1016 RMK 2CU010 5CU030 7SC040 A3001=

-SHRA 弱いにわか雨

95名無しSUN2016/09/21(水) 18:00:02.26ID:G9GPBfOL
09/21 17:27
RJNA 210827Z 35004KT 9999 -RADZ SCT008 OVC040 23/21 Q1017 RMK
3ST008 8SC040 A3005=

-RADZ 弱い霧雨

96名無しSUN2016/09/22(木) 10:25:20.72ID:je+s+tt9
09/22 09:20
RJNA 220020Z 34003KT 3500 R34/1100VP1800D SHRA BR FEW003
SCT005 BKN015 21/21 Q1017 RMK 1ST003 3ST005 5CU015 A3004
R1500 VIS SE-SW 3000M 1ST003 OVER AD 3ST005 OVER RWY=


天候が変だから解読が難しい わかるとこだけ
RJNA 県営名古屋飛行場(小牧)
220020Z 22日 グリニッジ標準時0時20分(日本時間9時20分)
34003KT 北から時計回りに340度の方向(北北西)の風03ノット(1.5m/s)
3500 視距離3500m
R34 34番滑走路(と言ってもも一本しかないが)
1100VP1800D 視距離1100mから(V) 1800m以上(P) 下降傾向
SHRA にわか雨
BR もや

97名無しSUN2016/09/22(木) 10:36:49.93ID:je+s+tt9
09/22 10:00
METAR RJNA 220100Z 32003KT 280V350 5000 -SHRA BR SCT005 BKN015 BKN040
22/21 Q1017 RMK 3ST005 5CU015 6CU040 A3003 VIS NW-NE 4000M
3ST005 OVER RWY=

VIS NW-NE 4000M 視距離 北西〜北東は4000m
3ST005 OVER RWY 全天の8分の3の層雲(ST 霧雲)が滑走路上(OVER RWY) 500フィート(150m)にある

98名無しSUN2016/09/22(木) 10:51:31.52ID:je+s+tt9
09/22 10:22
RJNA 220122Z 35004KT 320V020 4500 R34/1000V1800D SHRA BR
SCT005 BKN015 BKN040 22/21 Q1016 RMK 3ST005 5CU015 6CU040
A3002 R1400 VIS SE-SW 2500M 3ST005 OVER RWY=

R1400ってどういう意味だろう。誰か教えてください

99名無しSUN2016/09/22(木) 11:35:29.33ID:je+s+tt9
09/22 11:00
METAR RJNA 220200Z VRB02KT 4500 R34/1600D -SHRA BR SCT004 BKN015
BKN040 22/22 Q1016 RMK 3ST004 5CU015 6CU040 A3002 3ST004
OVER RWY=


3ST004 OVER RWY 全天の3/8の層雲(ST 霧雲)が滑走路の上空400フィート(120m)にある
= 終わり

100名無しSUN2016/09/24(土) 01:03:27.12ID:ko3V2dct
09/24 00:00
METAR RJNA 231500Z 33004KT 9999 FEW025 SCT080 BKN100 22/19 Q1015 RMK
1CU025 3AC080 6AC100 A2999=

101名無しSUN2016/09/26(月) 02:31:04.00ID:CP/JYDXe
09/26 01:00
METAR RJNA 251600Z 31003KT 9999 -SHRA FEW030 SCT070 BKN100 24/21
Q1018 RMK 1CU030 3AC070 7AC100 A3007=

雨だ

102名無しSUN2016/09/26(月) 10:50:49.42ID:CP/JYDXe
09/26 10:00
METAR RJNA 260100Z 32004KT 280V360 9999 FEW015 BKN170 BKN230 26/22
Q1019 RMK 1CU015 5AC170 A3011=

103名無しSUN2016/09/27(火) 10:17:27.33ID:3GRQAjp3
09/27 10:00
METAR RJNA 270100Z VRB02KT 9999 FEW020 SCT050 29/23 Q1018 RMK 1CU020
4SC050 A3006=

今日は30度超えそう

104名無しSUN2016/09/27(火) 21:20:00.06ID:3GRQAjp3
09/27 21:00
METAR RJNA 271200Z 20002KT 9999 FEW020 SCT/// 27/23 Q1016 RMK 1CU020
A3001=

105名無しSUN2016/09/29(木) 15:22:43.73ID:ItroQXHv
09/29 15:00
METAR RJNA 290600Z 31017KT 9999 FEW020 BKN035 BKN060 27/18 Q1010 RMK
1CU020 5CU035 5SC060 A2984 MAX WIND 23KT=

31017KT 北から時計回りに310度の方向(北西)の風17ノット(9m/s)

風つお

106名無しSUN2016/09/30(金) 22:07:52.81ID:sWL6k36l
09/30 21:00
METAR RJNA 301200Z VRB01KT 4500 -RA BR SCT005 BKN008 BKN015 21/20
Q1016 RMK 3ST005 5ST008 7SC015 A3001 VIS SW 4000M=

VIS SW 4000M 視程 南西に4000m

107名無しSUN2016/10/04(火) 20:52:13.27ID:LoEvXHV2
10/04 20:00
METAR RJNA 041100Z 32009KT 9999 FEW030 BKN/// 24/18 Q1015 RMK 1CU030
A2998=

108名無しSUN2016/10/07(金) 02:05:51.08ID:jzzpZP/O
10/07 01:00
METAR RJNA 061600Z 33009KT 9999 FEW030 20/13 Q1020 RMK 1CU030 A3014=

寒くなった

109名無しSUN2016/10/09(日) 04:33:37.11ID:0rwSeGeh
10/09 04:00
METAR RJNA 081900Z 16007KT 8000 -SHRA FEW008 SCT015 BKN050 23/22
Q1004 RMK 1ST008 3CU015 5SC050 A2967=

よく降るね

110名無しSUN2016/10/11(火) 22:18:00.03ID:lSWHKyA1
10/11 22:00
METAR RJNA 111300Z 31003KT 9999 FEW030 BKN/// 18/12 Q1016 RMK 1CU030
A3001=

寒くなった

111名無しSUN2016/10/12(水) 19:40:58.38ID:mLuHgGi0
10/12 19:00
METAR RJNA 121000Z 32010KT 9999 FEW030 BKN180 BKN/// 20/10 Q1016 RMK
1CU030 5AC180 A3002=

今夜も寒い

112名無しSUN2016/10/14(金) 02:17:11.69ID:TUtTK8ba
10/14 02:00
METAR RJNA 131700Z 34004KT 9999 FEW030 BKN/// 15/09 Q1021 RMK 1CU030
A3016=

寒い

113名無しSUN2016/10/17(月) 22:34:31.62ID:HtqO7/nA
10/17 22:00
METAR RJNA 171300Z 00000KT 9999 FEW025 BKN035 BKN060 21/19 Q1017 RMK
1CU025 5SC035 5SC060 A3003=

今夜は過ごしやすい
20度を超えると過ごしやすいね

114名無しSUN2016/10/18(火) 20:33:12.60ID:jl2PdTsa
10/18 20:00
METAR RJNA 181100Z 31006KT 9999 FEW025 BKN/// 23/17 Q1015 RMK 1CU025
A2999=

今日はあったかかった。
それでいて最高気温が25度程度だと歩いてても汗ばまないし
ちょうどいい季節だね

115名無しSUN2016/10/19(水) 22:01:49.92ID:T0QeqLD1
10/19 21:00
METAR RJNA 191200Z 15005KT 9999 FEW020 BKN040 BKN070 23/20 Q1014 RMK
1CU020 5CU040 5AC070 A2997=

今夜もあったかい

116名無しSUN2016/10/21(金) 10:21:11.46ID:dRdYVDX4
10/21 10:00
METAR RJNA 210100Z VRB04KT 9999 FEW030 BKN230 20/08 Q1018 RMK 1CU030
A3007=

日中は日差しがあるから20度あたりでちょうど過ごしやすいね。
夜は日差しがないから25度程度あった方が快適

117名無しSUN2016/10/21(金) 20:52:04.67ID:dRdYVDX4
10/21 20:00
METAR RJNA 211100Z 34005KT 9999 FEW030 BKN/// 18/10 Q1017 RMK 1CU030
A3005=

北海道は寒波だというからそろそろ寒くなるのかな

118名無しSUN2016/10/24(月) 20:10:32.65ID:rWLBtYbC
10/24 19:00
METAR RJNA 241000Z 30004KT 9999 FEW030 17/06 Q1016 RMK 1CU030 A3003=

119名無しSUN2016/10/25(火) 18:54:22.90ID:OheAl+1D
10/25 18:00
METAR RJNA 250900Z 31005KT 6000 SCT006 BKN015 BKN035 15/13 Q1016 RMK
3ST006 5CU015 7CU035 A3002=

寒いっす

120名無しSUN2016/10/26(水) 17:55:51.72ID:rZmFrk64
10/26 17:00
METAR RJNA 260800Z 26003KT 210V300 9999 FEW030 BKN050 BKN100 26/18
Q1012 RMK 2CU030 5SC050 7AC100 A2989=

今日はあったかい

121名無しSUN2016/10/27(木) 15:59:04.05ID:xrwJOqlT
10/27 15:00
METAR RJNA 270600Z 01007KT 340V040 9999 FEW030 SCT230 23/07 Q1019 RMK
1CU030 A3010=

今日はあったかい

122名無しSUN2016/10/28(金) 19:55:00.75ID:6+bhB6S6
10/28 19:00
METAR RJNA 281000Z VRB01KT 2400 -RA BR FEW004 BKN005 OVC012 16/16
Q1009 RMK 2ST004 6ST005 8SC012 A2981=

寒い

123名無しSUN2016/10/31(月) 20:53:53.28ID:6K8P45a9
10/31 20:00
METAR RJNA 311100Z 31003KT 9999 FEW030 BKN120 BKN160 17/10 Q1020 RMK
1CU030 5AC120 7AC160 A3015=

124名無しSUN2016/11/01(火) 21:23:02.40ID:Gw7ZZiws
11/01 21:00
METAR RJNA 011200Z 33006KT 9999 FEW030 12/05 Q1021 RMK 1CU030 A3017=

125名無しSUN2016/11/03(木) 19:41:27.60ID:mivtYOF9
11/03 19:00
METAR RJNA 031000Z 36007KT 9999 FEW030 SCT070 13/05 Q1016 RMK 1CU030
3AC070 A3000=

126名無しSUN2016/11/04(金) 17:41:05.21ID:HZWDuDIA
11/04 17:00
METAR RJNA 040800Z 28007KT 250V320 9999 FEW030 17/05 Q1015 RMK 1CU030
A2997=

今日はまああったか

127名無しSUN2016/11/09(水) 11:22:01.34ID:0Ag1Qnn4
11/09 11:00
METAR RJNA 090200Z 35013G23KT 9999 FEW030 14/00 Q1019 RMK 1CU030
A3011=

露点温度〜湿度対応表がありました。
http://www.ecoq21.jp/ecoheart/cat04/ecoheart04-3.html
気温14度 露点温度0度の場合 湿度はだいたい40%

128名無しSUN2016/11/09(水) 16:04:23.02ID:0Ag1Qnn4
11/09 15:27
RJNA 090627Z 32018G28KT 9999 FEW030 12/M03 Q1021 RMK 1CU030
A3015=

露点温度がマイナスに

129名無しSUN2016/11/10(木) 15:26:54.63ID:yd+8M7tP
11/10 15:00
METAR RJNA 100600Z 04003KT 9999 FEW020 SCT030 OVC040 13/M01 Q1021 RMK
1SC020 3SC030 8SC040 A3016=

13/M01
気温13度、露点温度-1度だと 相対湿度は約35〜40%

130名無しSUN2016/11/12(土) 14:02:08.06ID:Bbr+jYsa
11/12 13:00
METAR RJNA 120400Z 34004KT 290V020 9999 FEW030 19/05 Q1020 RMK 1CU030
A3015=

気温19度 露点温度5度だと 相対湿度は約40%
計算式もありました。
http://keisan.casio.jp/exec/user/1326944648

131名無しSUN2016/11/15(火) 11:45:41.99ID:f3HHWtEh
11/15 11:00
METAR RJNA 150200Z 33009KT 9999 FEW008 BKN230 18/15 Q1010 RMK 1ST008
A2983=

気温18度 露点温度15度で 湿度83%

今日は温暖湿潤気候で気持ちいい

132名無しSUN2016/11/16(水) 15:55:29.23ID:2TDRIt3Y
11/16 15:00
METAR RJNA 160600Z 31012KT 9999 FEW030 BKN250 15/01 Q1017 RMK 1CU030
A3006=

気温15度で露点温度1度だと湿度は39%

133名無しSUN2016/11/18(金) 09:55:44.56ID:0XS//EQK
11/18 09:00
METAR RJNA 180000Z 33006KT 9999 FEW020 BKN035 09/04 Q1026 RMK 1CU020
5CU035 A3031=

気温9度 露点温度4度 湿度71%

134名無しSUN2016/11/18(金) 16:43:31.18ID:0XS//EQK
11/18 16:00
METAR RJNA 180700Z 28004KT 9999 FEW030 17/06 Q1023 RMK 1CU030 A3022=

気温17度 露点温度6度 湿度48%

135名無しSUN2016/11/19(土) 17:03:25.29ID:Hq4Inajn
11/19 16:23
RJNA 190723Z 34003KT 9999 FEW005 SCT008 BKN012 16/15 Q1011 RMK
1ST005 4ST008 6CU012 A2987=

1ST005 全天の1/8のST(層雲・霧雲)が500フィート(150m)にある
4ST008 全天の4/8のST(層雲・霧雲)が800フィート(240m)にある
6CU012 全天の6/8のCU(積雲・ひつじ雲)が1200フィート(360m)にある

気温16度 露点温度15度 湿度94%

136名無しSUN2016/11/23(水) 20:11:44.24ID:NyyRWZQj
11/23 19:00
METAR RJNA 231000Z 34007KT 9999 FEW030 BKN/// 10/M02 Q1017 RMK 1CU030
A3006=

気温10度 露点温度-2度 湿度43%

寒くなった

137名無しSUN2016/11/25(金) 21:28:12.66ID:r5oThMF/
11/25 21:00
METAR RJNA 251200Z 35004KT 9999 FEW030 SCT/// 08/04 Q1023 RMK 1CU030
A3023=

気温8度 露点温度4度 湿度76%

気温は低いが湿度はかなりある

138名無しSUN2016/11/28(月) 22:14:41.86ID:LEjhxRWr
11/28 22:00
METAR RJNA 281300Z 34006KT 9999 FEW030 07/00 Q1021 RMK 1CU030 A3017=

気温7度 露点温度0度 湿度61%

139名無しSUN2016/11/30(水) 00:20:26.48ID:z2KMWr7q
11/30 00:00
METAR RJNA 291500Z 34008KT 9999 FEW030 06/01 Q1029 RMK 1CU030 A3041=

気温6度 露点温度1度 湿度70%

140名無しSUN2016/11/30(水) 14:40:23.98ID:z2KMWr7q
11/30 14:00
METAR RJNA 300500Z 30005KT 9999 FEW030 BKN040 10/00 Q1028 RMK 1CU030
7SC040 A3037=

今日は10度もある。
気温10度 露点温度0度 だと 湿度は50%
わかりやすいね

141名無しSUN2016/12/01(木) 19:59:44.01ID:+aeudGnS
12/01 18:00
METAR RJNA 010900Z 33003KT 9999 FEW025 BKN180 BKN/// 14/11 Q1017 RMK
1CU025 5AC180 A3005=

気温14度 露点温度11度 湿度82%

142名無しSUN2016/12/06(火) 10:49:35.93ID:gGrKckfr
12/06 10:23
RJNA 060123Z 35013KT 9999 FEW020 SCT030 BKN050 14/06 Q1014 RMK
2CU020 4CU030 5SC050 A2995=

今日はあったかい

143名無しSUN2016/12/06(火) 17:22:04.92ID:gGrKckfr
12/06 17:00
METAR RJNA 060800Z 34019KT 9999 FEW030 09/M02 Q1018 RMK 1CU030 A3007
MAX WIND 26KT=

34019KT 北から時計回りの方向に340度(北北西)の風19ノット(10m/s)
寒くなった

144名無しSUN2016/12/09(金) 20:57:38.86ID:53z6c/f2
12/09 20:15
RJNA 091115Z 31011KT 270V340 9999 -SHRA FEW020 BKN050 11/07
Q1013 RMK 1CU020 5SC050 A2992=

月夜の雨 微妙な天気

145名無しSUN2016/12/13(火) 20:42:42.82ID:yu5Qs3hK
12/13 20:00
METAR RJNA 131100Z 31003KT 4500 -RA BR FEW005 SCT008 BKN015 09/08
Q1009 RMK 1ST005 3ST008 5SC015 A2980 VIS S 4000M=

今日は一日中雨

146名無しSUN2016/12/15(木) 14:30:59.84ID:zuYBROuE
12/15 14:00
METAR RJNA 150500Z 34016KT 9999 FEW030 10/M07 Q1013 RMK 1CU030 A2992=

気温10度 露点温度-7度 湿度30%

147名無しSUN2016/12/16(金) 21:00:24.37ID:QEm05PWr
12/16 20:00
METAR RJNA 161100Z 29004KT 260V330 9999 FEW030 03/M05 Q1020 RMK
1CU030 A3015=

気温3度 露点温度-5度 湿度56%

148名無しSUN2016/12/20(火) 00:47:36.38ID:JSlrsaNC
12/20 00:00
METAR RJNA 191500Z 07002KT 9999 FEW030 06/03 Q1024 RMK 1CU030 A3027=

149名無しSUN2016/12/21(水) 00:21:05.19ID:ukUCOSYe
12/21 00:00
METAR RJNA 201500Z VRB01KT 9999 FEW030 05/04 Q1027 RMK 1CU030 A3034=

150名無しSUN2016/12/21(水) 20:21:05.95ID:ukUCOSYe
12/21 20:00
METAR RJNA 211100Z 10003KT 080V140 9999 FEW030 SCT/// 09/05 Q1030 RMK
1CU030 A3042=

今日はあったかい

151名無しSUN2016/12/22(木) 23:11:43.85ID:MUO4DwoE
12/22 22:43
RJNA 221343Z 28007KT 5000 -SHRA BR FEW002 BKN005 BKN010 16/15
Q1001 RMK 2ST002 5ST005 5CU010 A2958 VIS SW-NW 3000M=

-SHRA 弱いにわか雨 BR もや
今日はあったかい

152名無しSUN2016/12/27(火) 23:24:41.22ID:zRC1ECbm
12/27 23:00
METAR RJNA 271400Z 33017KT 9999 FEW020 SCT120 08/M02 Q1009 RMK 1CU020
3AC120 A2982=

153名無しSUN2016/12/28(水) 21:57:25.17ID:LabrPUp1
12/28 21:00
METAR RJNA 281200Z 33004KT 9999 FEW040 03/M06 Q1024 RMK 1SC040 A3025=

気温3度 露点温度-6度 湿度52%

154名無しSUN2017/01/06(金) 11:27:25.34ID:/Plp0GCK
01/06 11:00
METAR RJNA 060200Z 34009KT 9999 FEW030 BKN230 07/M07 Q1025 RMK 1CU030
A3028=

気温7度 露点温度−7度 湿度36%

155名無しSUN2017/01/17(火) 00:13:10.51ID:NNvEU+Yb
01/17 00:00
METAR RJNA 161500Z VRB02KT 9999 FEW020 M01/M02 Q1019 RMK 1CU020
A3012=

寒い

156名無しSUN2017/01/28(土) 11:16:25.66ID:gv34ARw/
01/28 11:00
METAR RJNA 280200Z 34003KT 9999 FEW030 10/03 Q1025 RMK 1CU030 A3030
WIND WST=

今日は10度あるので暖かい

157名無しSUN2017/02/03(金) 23:39:21.14ID:Cm18Cm3O
02/03 23:00
METAR RJNA 031400Z 31003KT 9999 FEW050 05/M05 Q1020 RMK 1SC050 A3014=

5度あると暖かく感じるのも節分だからね

158名無しSUN2017/02/06(月) 22:22:48.43ID:AmzaPlzZ
02/06 22:00
METAR RJNA 061300Z 32010KT 9999 FEW020 04/00 Q1012 RMK 1CU020 A2989=

気温4度 露点温度0度 湿度75%

159名無しSUN2017/02/08(水) 14:10:51.10ID:JfUXzDLz
02/08 13:00
METAR RJNA 080400Z 30013KT 280V340 9999 FEW030 BKN250 08/M06 Q1014
RMK 1CU030 A2996 MAX WIND 19KT=

気温8度 露点温度-6度 湿度36%

160名無しSUN2017/02/10(金) 18:13:30.61ID:1dsLKuLK
02/10 17:21
RJNA 100821Z 30012KT 9999 FEW020 BKN040 03/M03 Q1003 RMK
1CU020 5CU040 A2963=

気温3度 露点温度-3度 湿度65%
今日は風が強いが湿度があるのでいくらかまし

161名無しSUN2017/02/14(火) 00:07:09.49ID:XXorUeGf
02/13 23:00
METAR RJNA 131400Z 33005KT 9999 FEW020 02/M05 Q1025 RMK 1CU020 A3028=

気温2度 露点温度-5度 湿度60%

162名無しSUN2017/02/15(水) 23:34:58.53ID:0XrbTv5l
02/15 23:00
METAR RJNA 151400Z 34003KT 9999 FEW030 03/M04 Q1026 RMK 1CU030 A3032=

163名無しSUN2017/02/17(金) 20:36:28.52ID:LZv/NgeR
02/17 20:00
METAR RJNA 171100Z 34005KT 8000 FEW015 SCT030 BKN050 09/07 Q1013 RMK
1CU015 3CU030 6SC050 A2994=

今日はあったかい

164名無しSUN2017/02/20(月) 21:57:06.16ID:WD5AjNOa
02/20 21:16
RJNA 201216Z 34020KT 9999 FEW020 SCT050 06/01 Q1007 RMK 1CU020
3SC050 A2975 MAX WIND 27KT=

34020KT 北寄りの風(北から時計回りに340度の方角)20ノット(10m/s)
今日は風が強い

165名無しSUN2017/02/21(火) 23:26:33.53ID:0+rVsICh
02/21 22:00
METAR RJNA 211300Z 34010KT 9999 FEW020 02/M08 Q1027 RMK 1CU020 A3034=

気温2度 露点温度-8度 湿度48%

166名無しSUN2017/02/22(水) 22:52:37.90ID:LtuOM1lL
02/22 22:00
METAR RJNA 221300Z 08004KT 050V120 9999 -RA FEW030 BKN050 BKN080
09/03 Q1018 RMK 1CU030 5SC050 7AC080 A3007=

167名無しSUN2017/05/09(火) 00:12:30.44ID:7eC3QXTb
05/08 23:00
METAR RJNA 081400Z 33009KT 9999 FEW180 BKN/// 21/02 Q1013 RMK 2AC180
A2993=

今夜は暖かい

168名無しSUN2017/05/18(木) 21:15:56.11ID:VS2C4BdG
05/18 20:00
METAR RJNA 181100Z 16009KT 9999 FEW025 21/12 Q1014 RMK 1CU025 A2995=

169名無しSUN2017/05/22(月) 21:38:48.80ID:pVT584bx
05/22 21:00
METAR RJNA 221200Z 16009KT 9999 FEW030 22/15 Q1015 RMK 1CU030 A2998=

170名無しSUN2017/05/23(火) 20:50:32.94ID:z8sOAL2j
05/23 20:00
METAR RJNA 231100Z 16010KT 130V190 9999 BKN/// 22/15 Q1011 RMK A2986=

171名無しSUN2017/05/24(水) 21:21:47.31ID:R5SbM8uT
05/24 21:00
METAR RJNA 241200Z 16002KT 9999 -RA FEW020 BKN050 21/18 Q1008 RMK
1CU020 7SC050 A2978=

172名無しSUN2017/05/25(木) 16:49:26.33ID:YF98kO65
RJNA 250707Z VRB01KT 9999 -RA FEW020 SCT040 BKN100 22/17 Q1004
RMK 1CU020 3SC040 6AC100 A2966=

173名無しSUN2017/05/29(月) 21:27:42.10ID:H+EPIoFz
05/29 21:00
METAR RJNA 291200Z 15009KT 9999 FEW050 23/11 Q1012 RMK 1SC050 A2990=

174名無しSUN2017/06/01(木) 21:12:32.06ID:IHoRv8aQ
06/01 20:00
METAR RJNA 011100Z 20008KT 9999 FEW025 SCT120 BKN/// 26/17 Q0995 RMK
1CU025 3AC120 A2941=

Q0995・・・ 995hPa 気圧低い

175名無しSUN2017/06/06(火) 23:53:00.90ID:ha7EikQB
06/06 23:00
METAR RJNA 061400Z 11005KT 9999 FEW030 SCT040 BKN/// 20/14 Q1019 RMK
1CU030 3SC040 A3010=

176名無しSUN2017/06/12(月) 23:43:38.95ID:XKxNOb2n
06/12 23:00
METAR RJNA 121400Z 31008KT 9999 FEW030 BKN/// 18/10 Q1013 RMK 1CU030
A2992=

夜は涼しい

177名無しSUN2017/06/18(日) 21:59:46.56ID:k9AF/ryy
06/18 21:00
METAR RJNA 181200Z 15004KT 9999 FEW040 BKN150 BKN/// 23/15 Q1008 RMK
2SC040 5AC150 A2978=

178名無しSUN2017/06/22(木) 14:36:29.45ID:lPQrWQRo
RJNA(METAR)
06/22 14:00
METAR RJNA 220500Z 22004KT 9999 FEW025 BKN250 29/13 Q1007 RMK 1CU025
A2974=

179名無しSUN2017/06/23(金) 21:28:26.91ID:IkZ62mjd
06/23 21:00
METAR RJNA 231200Z 16006KT 130V190 9999 SCT/// 24/18 Q1006 RMK A2973=

180名無しSUN2017/06/28(水) 23:23:56.89ID:+u3qWf3V
06/28 23:00
METAR RJNA 281400Z 15004KT 9999 FEW030 BKN/// 23/21 Q1013 RMK 1CU030
A2992=

181名無しSUN2017/06/29(木) 20:24:07.13ID:253qECWB
06/29 20:00
METAR RJNA 291100Z 16008KT 9999 FEW030 SCT120 BKN150 26/20 Q1013 RMK
2CU030 3AC120 5AC150 A2992=

182名無しSUN2017/07/01(土) 12:33:37.03ID:SXyFp6je
何やってるの?

183名無しSUN2017/07/04(火) 00:53:09.76ID:Jn/m38DW
07/04 00:00
METAR RJNA 031500Z 29004KT 9999 FEW030 SCT170 BKN/// 30/23 Q1007 RMK
1CU030 3AC170 A2976=

いまだ30度あるよ

184名無しSUN2017/07/05(水) 22:02:32.20ID:vhqk3R5/
07/05 21:00
METAR RJNA 051200Z 29006KT 260V320 9999 FEW025 BKN/// 26/20 Q1010 RMK
1CU025 A2983=

185名無しSUN2017/07/10(月) 21:39:09.06ID:qnTpULSW
07/10 21:00
METAR RJNA 101200Z VRB01KT 9999 FEW025 SCT150 26/25 Q1011 RMK 1CU025
3AC150 A2987=

186名無しSUN2017/07/13(木) 22:03:23.83ID:1mn76el8
07/13 21:00
METAR RJNA 131200Z 15009KT 9999 FEW025 SCT040 27/24 Q1010 RMK 1CU025
4SC040 A2985=

SC=層積雲(くもりぐも)

187名無しSUN2017/07/14(金) 20:44:44.46ID:l2rb1WXH
07/14 20:00
METAR RJNA 141100Z 01003KT 320V040 9999 FEW030 BKN120 28/24 Q1012 RMK
2CU030 5AC120 A2989=

AC=高積雲(ひつじぐも)

188名無しSUN2017/07/16(日) 22:50:25.37ID:L2apFmE3
07/14 20:00
METAR RJNA 141100Z 01003KT 320V040 9999 FEW030 BKN120 28/24 Q1012 RMK
2CU030 5AC120 A2989=

AC=高積雲(ひつじぐも)

189名無しSUN2017/07/16(日) 23:13:11.89ID:L2apFmE3
07/16 22:00
METAR RJNA 161300Z VRB02KT 9999 FEW180 BKN/// 30/22 Q1010 RMK 1AC180
A2985=

1AC180 全天1/8のAC(高積雲)が18000フィート(5400m)にある

190名無しSUN2017/07/20(木) 20:42:42.36ID:4mAy7z7k
07/20 20:00
METAR RJNA 201100Z 17008KT 140V200 9999 FEW030 29/23 Q1010 RMK 1CU030
A2985=

191名無しSUN2017/07/24(月) 21:26:05.59ID:Xz5JrKka
07/24 21:00
METAR RJNA 241200Z 15008KT 9999 -TSRA FEW025 FEW030CB SCT050 BKN100
29/24 Q1003 RMK 1CU025 1CB030 3SC050 6AC100 A2963 FBL TS
NW=

-TSRA=弱い(-)雷(TS)雨(RA)

1CU025 全天の1/8のCU(積雲)が2500フィート(750m)にある
1CB030 全天の1/8のCB(積乱雲)が3000フィート(900m)にある
3SC050 全天の3/8のSC(層積雲)が5000フィート(1500m)にある
6AC100 全天の6/8のAC(高積雲)が10000フィート(3000m)にある

192名無しSUN2017/07/26(水) 21:23:45.65ID:EIKDmDMQ
07/26 21:00
METAR RJNA 261200Z 15012KT 9999 FEW020 BKN030 BKN050 29/25 Q1006 RMK
1CU020 5CU030 7SC050 A2973=

193名無しSUN2017/08/01(火) 23:13:09.37ID:EOtBf43x
08/01 23:00
METAR RJNA 011400Z 31006KT 9999 FEW030 BKN/// 28/22 Q1006 RMK 1CU030
A2973=

194名無しSUN2017/08/02(水) 22:28:20.06ID:nAi+b02b
08/02 22:00
METAR RJNA 021300Z 24005KT 200V300 9999 FEW020 BKN040 27/22 Q1008 RMK
1CU020 7SC040 A2977=

195名無しSUN2017/08/03(木) 20:37:56.67ID:PEHI2jWo
08/03 20:00
METAR RJNA 031100Z 19007KT 9999 FEW030 SCT050 BKN100 30/23 Q1009 RMK
1CU030 3SC050 6AC100 A2980=

1CU030 全天の1/8のCU(積雲)が3000フィート(900m)にある
3SC050 全天の3/8のSC(層積雲)が5000フィート(1500m)にある
6AC100 全天の6/8のAC(高積雲)が10000フィート(3000m)にある

196名無しSUN2017/08/07(月) 20:22:43.46ID:rqJXwVvV
08/07 19:36
RJNA 071036Z 11019G29KT 1500 R16/0700V1300D +SHRA BR FEW008
BKN015 BKN025 26/25 Q0987 RMK 2ST008 7CU015 7CU025 A2916
R0900 RI++=

R16/0700V1300D ・・・16番滑走路視程700mから1300m可変

197名無しSUN2017/08/08(火) 21:19:52.85ID:IBBGRqqP
08/08 20:00
METAR RJNA 081100Z 29012G22KT 9999 FEW050 28/23 Q0995 RMK 1SC050
A2941=

29012G22KT ・・・・北から時計回りに290度(西北西)の風12ノット(6m/s) G(最大風速)22ノット(11m/s)

198名無しSUN2017/08/09(水) 20:42:28.60ID:s0kYT5Rk
08/09 20:00
METAR RJNA 091100Z 30006KT 270V330 9999 FEW030 BKN/// 31/21 Q0996 RMK
1CU030 A2944=

199名無しSUN2017/08/10(木) 21:00:07.04ID:tudwQhxv
08/10 20:19
RJNA 101119Z 15011KT 2000 R34/0500VP1800D +TSRA FEW008 BKN010
BKN025CB 27/26 Q1000 RMK 1ST008 5CU010 7CB025 A2953 R0800
VIS SW 1500M MOD TS OHD MOV E RI++=

VIS SW 1500M MOD TS OHD MOV E 視程南西1500m 並の(MOD)雷雨(TS)上空から(OHD)東へ(E)動く(MOV)

200名無しSUN2017/08/16(水) 22:03:55.69ID:WJc2m8lH
08/16 21:00
METAR RJNA 161200Z 24006KT 200V290 9999 FEW015 SCT030 BKN050 27/24
Q1006 RMK 1CU015 3CU030 7SC050 A2971=

201名無しSUN2017/08/17(木) 20:45:34.64ID:zcBY0/Bx
08/17 20:00
METAR RJNA 171100Z 16010KT 9999 FEW030 SCT/// 28/23 Q1008 RMK 1CU030
A2979 LIGHTNING W=

202名無しSUN2017/08/18(金) 22:08:21.84ID:oTJbco5m
08/18 22:00
METAR RJNA 181300Z 15003KT 9999 TS FEW015 SCT025CB BKN045 27/26 Q1009
RERA RMK 2CU015 4CB025 7SC045 A2981 FBL TS OHD=

RERA・・・Recent Rain(最近雨が降った)

203名無しSUN2017/08/21(月) 21:29:58.57ID:sveWbpIW
08/21 21:00
METAR RJNA 211200Z 16009KT 130V190 9999 FEW020 BKN/// 29/24 Q1013 RMK
1CU020 A2994=

204名無しSUN2017/08/22(火) 20:12:37.53ID:pGbVj/DX
08/22 19:00
METAR RJNA 221000Z 08004KT 050V110 9999 FEW010 SCT030 BKN040 25/23
Q1013 RETS RMK 1CU010 3CU030 5SC040 A2994=

RETS・・・Recent Thunder Storm

205名無しSUN2017/08/24(木) 22:13:21.80ID:9LEARvG1
08/24 21:00
METAR RJNA 241200Z VRB01KT 9999 FEW050 32/22 Q1007 RMK 1SC050 A2975=

夜なのに32度もある
32/22 気温32度 露点温度22度 湿度56%

206名無しSUN2017/08/28(月) 20:20:25.25ID:gmVLVjZn
08/28 20:00
METAR RJNA 281100Z 22004KT 200V260 9999 FEW030 BKN100 BKN/// 28/24
Q1011 RMK 1CU030 5AC100 A2988=

207名無しSUN2017/08/29(火) 20:27:38.95ID:FTABe1kA
08/29 20:00
METAR RJNA 291100Z 18005KT 9999 FEW030 BKN/// 30/25 Q1008 RMK 1CU030
A2979=

208名無しSUN2017/08/30(水) 21:59:19.45ID:J5ovfgXN
08/30 21:00
METAR RJNA 301200Z 32008KT 9999 FEW/// 27/18 Q1006 RMK A2973=

27/18 ・・・気温27度 露点温度18度 湿度58%

209名無しSUN2017/08/31(木) 22:08:54.90ID:w9ZL9l+j
08/31 21:00
METAR RJNA 311200Z 31011KT 9999 FEW040 26/15 Q1002 RMK 1CU040 A2961=

26/15 ・・・気温26度 露点温度15度 湿度51%

210名無しSUN2017/09/01(金) 22:09:32.41ID:y3nJeBqk
09/01 22:00
METAR RJNA 011300Z 31009KT 9999 FEW030 SCT180 BKN/// 25/17 Q1005 RMK
1CU030 3AC180 A2968=

211名無しSUN2017/09/05(火) 21:52:18.29ID:lVSJrfkZ
09/05 21:00
METAR RJNA 051200Z 30003KT 270V330 9999 -RA FEW020 BKN040 OVC070
25/22 Q1012 RMK 2CU020 5SC040 8AS070 A2989=

OVC070・・・オーバークラウド 7000フィート(2100m)

212名無しSUN2017/09/06(水) 21:29:52.48ID:BSvPwgnt
09/06 21:00
METAR RJNA 061200Z VRB02KT 9999 FEW020 BKN080 25/22 Q1007 RMK 1CU020
6AC080 A2974=

213名無しSUN2017/09/08(金) 20:30:44.12ID:dV6Emrse
09/08 20:00
METAR RJNA 081100Z 31009KT 9999 FEW050 26/18 Q1007 RMK 1SC050 A2976=

214名無しSUN2017/09/11(月) 20:43:31.67ID:nCmpUJDc
09/11 20:00
METAR RJNA 111100Z 13014KT 090V160 9999 FEW020 SCT030 BKN050 26/20
Q1011 RMK 1CU020 3CU030 6SC050 A2988 MAX WIND 21KT=

MAX WIND 21KT・・・最大風速21ノット(11m/s)

215名無しSUN2017/09/12(火) 20:52:02.58ID:s8UrVO1Q
09/12 20:00
METAR RJNA 121100Z 27007KT 9999 FEW030 SCT100 BKN/// 25/21 Q1010 RMK
1CU030 3AC100 A2985=

216名無しSUN2017/09/13(水) 21:09:49.08ID:ZrQ+Nv9a
09/13 20:00
METAR RJNA 131100Z 29010KT 9999 FEW030 BKN/// 27/16 Q1014 RMK 1CU030
A2997=

217名無しSUN2017/09/14(木) 21:03:28.65ID:JXkGEEdC
09/14 20:00
METAR RJNA 141100Z 31012KT 9999 FEW180 BKN/// 24/14 Q1015 RMK 1AC180
A2998=

218名無しSUN2017/09/15(金) 20:47:05.90ID:ezD+jDwU
09/15 20:00
METAR RJNA 151100Z 36003KT 9999 FEW030 BKN/// 24/15 Q1016 RMK 1CU030
A3002=

219名無しSUN2017/09/19(火) 21:32:15.10ID:904XcOlk
09/19 21:00
METAR RJNA 191200Z 04004KT 9999 FEW030 BKN/// 24/19 Q1010 RMK 1CU030
A2985=

220名無しSUN2017/09/20(水) 20:47:11.70ID:JKYkWTU4
09/20 20:00
METAR RJNA 201100Z 33003KT 290V020 7000 FEW020 SCT100 BKN170 22/20
Q1009 RMK 2CU020 3AC100 7AC170 A2981=

221名無しSUN2017/09/21(木) 21:37:50.48ID:AJ1iOYiz
09/21 21:00
METAR RJNA 211200Z 32004KT 280V350 9999 FEW030 BKN/// 22/16 Q1013 RMK
1CU030 A2993=

222名無しSUN2017/09/22(金) 22:07:53.41ID:7mPLeILp
09/22 21:00
METAR RJNA 221200Z 34006KT 8000 FEW015 BKN045 BKN100 20/20 Q1013 RMK
1CU015 5SC045 7AC100 A2994=

223名無しSUN2017/09/25(月) 20:44:42.21ID:cL/bdbHk
09/25 20:00
METAR RJNA 251100Z 21003KT 9999 FEW030 25/15 Q1014 RMK 1CU030 A2995=

224名無しSUN2017/09/26(火) 20:31:45.45ID:XZ/tVY2A
09/26 20:00
METAR RJNA 261100Z 16007KT 9999 FEW030 BKN/// 25/21 Q1013 RMK 1CU030
A2994=

225名無しSUN2017/09/27(水) 20:52:51.40ID:VoUg11Zs
09/27 20:00
METAR RJNA 271100Z VRB02KT 8000 -RA FEW020 BKN040 BKN100 23/20 Q1008
RMK 1SC020 5SC040 7AS100 A2977=

226名無しSUN2017/09/28(木) 20:37:45.72ID:wYxJFM1M
09/28 20:00
METAR RJNA 281100Z 31006KT 9999 FEW030 SCT100 20/12 Q1005 RMK 1CU030
3AC100 A2968=

227名無しSUN2017/09/29(金) 20:14:01.60ID:NAf1loWG
09/29 19:00
METAR RJNA 291000Z 32009KT 9999 FEW050 SCT/// 23/10 Q1015 RMK 1SC050
A2997=

228名無しSUN2017/10/02(月) 20:54:42.61ID:ehIEoOJ+
10/02 20:14
RJNA 021114Z VRB01KT 3000 R34/1000VP1800D SHRA BR FEW006
SCT010 BKN015 19/19 Q1012 RMK 2ST006 3CU010 5CU015 A2990
R1200=

2ST006 全天の2/8のST(霧雲)が600フィート(180m)にある
3CU010 全天の3/8のCU(積雲)が1000フィート(300m)にある
5CU015 全天の5/8のCU(積雲)が1500フィート(450m)にある

229名無しSUN2017/10/03(火) 20:38:55.93ID:sDGeoa+v
10/03 20:00
METAR RJNA 031100Z 32012KT 9999 FEW030 22/13 Q1011 RMK 1CU030 A2987=

230名無しSUN2017/10/05(木) 20:58:43.12ID:fouS+cTe
10/05 20:00
METAR RJNA 051100Z 21003KT 180V240 9999 FEW030 BKN180 BKN/// 20/12
Q1026 RMK 1CU030 5AC180 A3031=

231名無しSUN2017/10/06(金) 20:26:39.99ID:CcEYoSVH
10/06 19:37
RJNA 061037Z VRB02KT 8000 -RA FEW008 SCT015 BKN050 15/15 Q1021
RMK 2ST008 4SC015 7SC050 A3015 VIS S-SW 10KM=

2ST008 全天の2/8のST(層雲・霧雲)が800フィート(240m)にある
4SC015 全天の4/8のSC(層積雲)が1500フィート(450m)にある
7SC050 全天の7/8のSC(層積雲)が5000フィート(1500m)にある

232名無しSUN2017/10/10(火) 21:54:22.22ID:ckgo8ZVi
10/10 21:00
METAR RJNA 101200Z 33006KT 9999 FEW150 23/17 Q1016 RMK 1AC150 A3001=

233名無しSUN2017/10/11(水) 21:49:07.77ID:YDyA9oT+
10/11 21:00
METAR RJNA 111200Z 28003KT 240V300 9999 FEW/// 26/20 Q1014 RMK A2997=

234名無しSUN2017/10/12(木) 20:30:24.44ID:lfiZFSuk
10/12 20:00
METAR RJNA 121100Z 32008KT 9999 FEW020 BKN060 BKN100 21/16 Q1013 RMK
1CU020 5SC060 6AC100 A2994=

235名無しSUN2017/10/13(金) 21:52:33.06ID:CnRaLZZY
10/13 21:10
RJNA 131210Z 28002KT 9999 -SHRA FEW010 SCT025 BKN080 19/16
Q1017 RMK 1CU010 3CU025 7AC080 A3004=

236名無しSUN2017/10/16(月) 21:33:19.10ID:ggHbUbZR
10/16 21:00
METAR RJNA 161200Z 34007KT 8000 -RA FEW008 BKN050 BKN070 15/14 Q1023
RMK 1ST008 5SC050 7AS070 A3022=

237名無しSUN2017/10/18(水) 20:59:22.21ID:Y7vQ47Bc
10/18 20:03
RJNA 181103Z VRB01KT 9999 -RA FEW025 BKN040 BKN080 18/11 Q1021
RMK 1CU025 6SC040 7AC080 A3016=

238名無しSUN2017/10/19(木) 21:27:10.50ID:ibFzQGXI
10/19 21:00
METAR RJNA 191200Z 34004KT 9999 FEW006 BKN030 BKN050 16/14 Q1015 RMK
1ST006 5SC030 7SC050 A2999=

239名無しSUN2017/10/20(金) 21:05:17.62ID:tUTiQc6/
10/20 20:00
METAR RJNA 201100Z 36003KT 320V030 9999 FEW008 BKN040 BKN080 18/16
Q1015 RMK 1ST008 5SC040 7AC080 A2998=

240名無しSUN2017/10/23(月) 21:37:50.95ID:cwpWbQll
10/23 21:00
METAR RJNA 231200Z 32014KT 9999 FEW050 SCT100 BKN/// 15/08 Q1013 RMK
1SC050 4AC100 A2993=

241名無しSUN2017/10/24(火) 21:49:25.46ID:NtfLDFCZ
10/24 21:00
METAR RJNA 241200Z 33004KT 9999 -SHRA FEW030 BKN060 16/10 Q1020 RMK
2CU030 7SC060 A3012=

242名無しSUN2017/10/27(金) 21:18:08.48ID:FD5Wvpfx
10/27 21:00
METAR RJNA 271200Z VRB02KT 9999 SCT180 BKN/// 16/13 Q1021 RMK 3AC180
A3016=

243名無しSUN2017/10/31(火) 22:10:07.36ID:vVDMDUxk
10/31 22:00
METAR RJNA 311300Z 00000KT 9999 FEW/// 11/05 Q1023 RMK A3022=

寒くなった

244名無しSUN2017/11/03(金) 21:18:25.89ID:bRKf+Jm0
11/03 21:00
METAR RJNA 031200Z 01003KT 9999 FEW030 SCT180 BKN/// 18/12 Q1014 RMK
1CU030 3AC180 A2997=

245名無しSUN2017/11/07(火) 22:43:57.38ID:CGgjAVv9
11/07 22:00
METAR RJNA 071300Z 00000KT 9999 FEW030 BKN050 BKN170 17/14 Q1020 RMK
1CU030 5SC050 7AC170 A3015=

246名無しSUN2017/11/15(水) 21:45:48.18ID:u3OwlrUG
11/15 21:00
METAR RJNA 151200Z 29003KT 9999 FEW050 12/05 Q1015 RMK 1SC050 A2999=

247名無しSUN2017/11/17(金) 20:18:17.23ID:gBGGSs17
11/17 20:00
METAR RJNA 171100Z VRB02KT 9999 FEW025 BKN190 10/05 Q1019 RMK 1CU025
7AC190 A3012=

248名無しSUN2017/11/21(火) 21:58:09.00ID:gJ/QZV8H
11/21 21:00
METAR RJNA 211200Z 34005KT 9999 FEW030 BKN040 06/02 Q1025 RMK 1CU030
5SC040 A3030=

249名無しSUN2017/11/24(金) 21:55:58.67ID:dPELAoNs
11/24 21:00
METAR RJNA 241200Z VRB01KT 9999 FEW030 SCT080 07/02 Q1022 RMK 1CU030
3AC080 A3020=

250名無しSUN2017/11/28(火) 22:39:09.90ID:jxuD/ch8
11/28 22:00
METAR RJNA 281300Z 35005KT 9999 FEW/// 08/05 Q1023 RMK A3023=

251名無しSUN2017/12/01(金) 21:33:33.25ID:Mp94/MUi
12/01 21:00
METAR RJNA 011200Z 29006KT 9999 FEW030 07/03 Q1023 RMK 1CU030 A3022=

252名無しSUN2017/12/05(火) 22:11:57.67ID:sHoOx5h/
METAR RJNA 051200Z 28007KT 9999 FEW030 07/M06 Q1014 RMK 1CU030 A2994=
07/M06・・・気温7度 露点温度−6度 湿度39%

253名無しSUN2017/12/08(金) 21:55:53.88ID:f39WSOZX
12/08 21:00
METAR RJNA 081200Z 33010KT 9999 FEW040 04/M01 Q1011 RMK 1SC040 A2986=

254名無しSUN2017/12/12(火) 22:15:24.09ID:Lb1Oz26X
12/12 22:00
METAR RJNA 121300Z 31009KT 9999 -SHRA FEW020 BKN050 BKN/// 04/M02
Q1018 RMK 1CU020 6SC050 A3007=

255名無しSUN2017/12/15(金) 22:05:27.71ID:8IO8K0bK
12/15 21:00
METAR RJNA 151200Z VRB01KT 9999 FEW030 BKN/// 06/00 Q1020 RMK 1CU030
A3015=

256名無しSUN2017/12/19(火) 22:26:28.07ID:kHdmboV2
12/19 22:00
METAR RJNA 191300Z 31003KT 9999 FEW030 03/01 Q1025 RMK 1CU030 A3028=

257名無しSUN2017/12/23(土) 01:56:15.11ID:x7FFdymq
12/23 01:00
METAR RJNA 221600Z VRB02KT 9999 FEW030 02/M01 Q1023 RMK 1CU030 A3022=

258名無しSUN2017/12/26(火) 22:05:22.85ID:0S3gfuxP
12/26 21:44
RJNA 261244Z 30011KT 9999 -SHRA FEW010 SCT015 BKN030 03/01
Q1011 RMK 1CU010 3CU015 6CU030 A2987=

259名無しSUN2018/01/07(日) 00:17:36.48ID:Epo4+7gU
01/07 00:00
METAR RJNA 061500Z 31011KT 9999 FEW030 04/M04 Q1018 RMK 1CU030 A3008=

260名無しSUN2018/01/09(火) 23:46:38.01ID:PawdB7kn
01/09 23:00
METAR RJNA 091400Z VRB01KT 9999 FEW020 BKN050 04/M02 Q1010 RMK 1CU020
5SC050 A2984=

261名無しSUN2018/01/13(土) 22:13:54.81ID:HVXlXgFo
01/13 21:33
RJNA 131233Z 33007KT 8000 FEW008 SCT025 BKN050 01/01 Q1025 RMK
1ST008 4CU025 7SC050 A3030=

262名無しSUN2018/01/16(火) 22:05:13.94ID:fgQ8KiiR
01/16 22:00
METAR RJNA 161300Z 07003KT 040V100 9999 FEW020 SCT030 BKN060 08/05
Q1018 RMK 1CU020 3CU030 6SC060 A3008=

263名無しSUN2018/01/23(火) 20:42:49.79ID:Jsg91QAr
01/23 20:00
METAR RJNA 231100Z 33010KT 9999 FEW020 00/M03 Q1012 RMK 1CU020 A2991=

264名無しSUN2018/01/28(日) 23:26:35.19ID:mOpvITId
01/28 23:00
METAR RJNA 281400Z 33004KT 9999 FEW020 SCT030 BKN/// M00/M01 Q1014
RMK 1CU020 3CU030 A2996=

265名無しSUN2018/01/30(火) 21:11:30.10ID:Wj6N+zfF
01/30 21:00
METAR RJNA 301200Z 36004KT 9999 FEW015 BKN050 02/M02 Q1022 RMK 1CU015
7SC050 A3019=

266名無しSUN2018/02/03(土) 22:00:08.84ID:yA8FjB10
02/03 21:00
METAR RJNA 031200Z 29009KT 9999 FEW030 04/M01 Q1015 RMK 1CU030 A2999=

267名無しSUN2018/02/06(火) 23:40:10.05ID:1nV07s/9
02/06 23:00
METAR RJNA 061400Z VRB01KT 9999 FEW030 M01/M06 Q1015 RMK 1CU030
A3000=

268名無しSUN2018/02/11(日) 01:17:13.66ID:0pG6Q/ht
02/11 01:00
METAR RJNA 101600Z 33007KT 5000 -RA BR FEW008 BKN020 BKN035 05/05
Q1009 RMK 1ST008 5SC020 7SC035 A2981=

269名無しSUN2018/02/13(火) 21:28:38.25ID:qJZskM3l
02/13 21:00
METAR RJNA 131200Z 01004KT 330V050 9999 FEW020 01/M02 Q1022 RMK
1CU020 A3019=

270名無しSUN2018/02/16(金) 23:16:41.24ID:1toRnGAH
02/16 23:00
METAR RJNA 161400Z 01003KT 9999 FEW030 BKN110 BKN170 07/M04 Q1010 RMK
1CU030 5AC110 6AC170 A2983=

271名無しSUN2018/02/21(水) 00:56:46.33ID:9n43DsWp
02/21 00:00
METAR RJNA 201500Z 32005KT 9999 FEW030 BKN/// 06/M02 Q1017 RMK 1CU030
A3004=

272名無しSUN2018/02/26(月) 00:23:55.09ID:2O11w3E9
02/26 00:00
METAR RJNA 251500Z VRB01KT 9999 FEW030 SCT050 BKN080 08/M02 Q1021 RMK
1CU030 3SC050 5AC080 A3015=

273名無しSUN2018/03/02(金) 20:25:41.66ID:sIH3eHnv
03/02 20:00
METAR RJNA 021100Z 32006KT 9999 FEW030 06/M05 Q1016 RMK 1CU030 A3002=

274名無しSUN2018/03/07(水) 22:29:49.14ID:Ta411NnK
03/07 22:00
METAR RJNA 071300Z 01003KT 350V050 9999 FEW030 BKN050 BKN/// 08/01
Q1029 RMK 1CU030 5SC050 A3039=

275名無しSUN2018/03/11(日) 22:54:03.89ID:bJvtrGpm
03/11 22:00
METAR RJNA 111300Z 35008KT 9999 FEW040 07/M04 Q1023 RMK 1SC040 A3022=

276名無しSUN2018/03/13(火) 22:41:00.36ID:+BF7Euof
03/13 22:00
METAR RJNA 131300Z VRB01KT 9999 FEW030 13/08 Q1021 RMK 1CU030 A3017=

277名無しSUN2018/03/21(水) 09:48:30.01ID:JMI6vn+m
03/21 09:28
RJNA 210028Z 28003KT 4000 RA BR FEW004 SCT006 BKN008 07/07
Q1014 RMK 1ST004 3ST006 5ST008 A2996=

RA・・・雨  BR…もや

278名無しSUN2018/03/23(金) 22:12:20.38ID:GFMIGYgu
03/23 21:00
METAR RJNA 231200Z 31012KT 9999 FEW030 08/02 Q1017 RMK 1CU030 A3005=

279名無しSUN2018/04/01(日) 00:59:11.44ID:YGorXP93
04/01 00:00
METAR RJNA 311500Z VRB02KT 9999 FEW030 13/08 Q1021 RMK 1CU030 A3017=

280名無しSUN2018/04/05(木) 00:39:58.28ID:58ALX5kj
04/05 00:00
METAR RJNA 041500Z 28009KT 250V310 9999 FEW030 SCT070 13/07 Q1016 RMK
1CU030 3AC070 A3003=

281名無しSUN2018/04/07(土) 23:12:42.77ID:xRjVGKxI
04/07 22:32
RJNA 071332Z 35003KT 9999 -SHRA FEW030 SCT040 BKN080 08/03
Q1010 RMK 1CU030 3SC040 7AC080 A2985=

282名無しSUN2018/04/11(水) 23:18:36.41ID:Ruo1ZfiN
04/11 23:00
METAR RJNA 111400Z VRB01KT 9999 -SHRA FEW020 SCT030 BKN045 17/15
Q1010 RMK 1CU020 3CU030 6SC045 A2984=

283名無しSUN2018/04/14(土) 22:17:46.88ID:qVsqy0LC
04/14 22:00
METAR RJNA 141300Z 10006KT 4000 SHRA BR FEW008 SCT015 BKN025 14/13
Q1009 RMK 1ST008 3CU015 7CU025 A2981=

284名無しSUN2018/04/17(火) 23:46:58.74ID:yfidWWfT
04/17 23:00
METAR RJNA 171400Z 36004KT 4000 -SHRA BR FEW005 BKN015 BKN020 13/12
Q1017 RMK 1ST005 5CU015 5CU020 A3005=

285名無しSUN2018/04/21(土) 23:38:12.84ID:9G1t+woU
04/21 23:00
METAR RJNA 211400Z VRB02KT 9999 NSC 19/12 Q1020 RMK A3014=

NSC・・・特に目立った雲はない

286名無しSUN2018/04/27(金) 00:40:51.11ID:Nv24PaHa
04/27 00:00
METAR RJNA 261500Z VRB01KT 9999 SCT020 BKN050 BKN/// 18/12 Q1013 RMK
3CU020 5SC050 A2993=

287名無しSUN2018/05/01(火) 00:37:25.56ID:PjmLyPTQ
05/01 00:00
METAR RJNA 301500Z VRB02KT 9999 FEW030 17/13 Q1015 RMK 1CU030 A3000=

288名無しSUN2018/05/11(金) 00:35:00.25ID:tgE4Z129
05/11 00:00
METAR RJNA 101500Z 30005KT 9999 FEW030 12/04 Q1020 RMK 1CU030 A3014=

289名無しSUN2018/05/16(水) 00:57:32.03ID:RrqD6e9E
05/16 00:00
METAR RJNA 151500Z VRB02KT 9999 FEW030 SCT/// 22/16 Q1013 RMK 1CU030
A2992=

290名無しSUN2018/05/20(日) 07:20:10.49ID:hgbsShWw
05/20 07:00
METAR RJNA 192200Z 34009KT 9999 FEW025 SCT050 14/06 Q1015 RMK 1CU025
4SC050 A2999=

291名無しSUN2018/05/22(火) 23:58:17.34ID:5oLvVLrp
05/22 23:00
METAR RJNA 221400Z 15009KT 9999 FEW030 SCT/// 19/12 Q1015 RMK 1CU030
A2998=

292名無しSUN2018/05/26(土) 00:28:04.74ID:FbT4VuUW
05/26 00:00
METAR RJNA 251500Z 05003KT 9999 BKN/// 22/13 Q1007 RMK A2976=

293名無しSUN2018/05/31(木) 01:37:49.82ID:JpnDV/BX
05/31 01:00
METAR RJNA 301600Z 35003KT 9999 FEW030 SCT150 BKN/// 17/15 Q1009 RMK
1CU030 3AC150 A2981=

294名無しSUN2018/06/05(火) 00:06:01.95ID:Rew3Yg3I
06/04 23:00
METAR RJNA 041400Z 22004KT 9999 FEW020 BKN060 23/17 Q1015 RMK 1CU020
7SC060 A2998=

295名無しSUN2018/06/06(水) 00:12:24.36ID:InHo/i2z
06/05 23:00
METAR RJNA 051400Z 14004KT 9999 -RA FEW030 SCT050 OVC120 23/18 Q1013
RMK 1CU030 3SC050 8AS120 A2993=

296名無しSUN2018/06/10(日) 00:25:20.82ID:HqWg+Uuj
06/10 00:00
METAR RJNA 091500Z 34006KT 9999 FEW030 20/16 Q1006 RMK 1CU030 A2971=

297名無しSUN2018/06/14(木) 00:36:33.60ID:zuKuE2Zc
06/14 00:00
METAR RJNH 131500Z 04005KT 9999 FEW070 21/18 Q1007 RMK 1AC070 A2974=

298名無しSUN2018/06/18(月) 23:24:58.49ID:sMIFCelg
06/18 23:00
METAR RJNA 181400Z 18003KT 140V220 9999 FEW030 BKN090 BKN/// 23/18
Q1008 RMK 1CU030 5AC090 A2977=

299名無しSUN2018/06/19(火) 23:40:24.57ID:NfHfrR1p
06/19 23:00
METAR RJNA 191400Z 14006KT 110V180 9999 -SHRA FEW008 BKN030 21/19
Q1008 RMK 1ST008 7CU030 A2979=

300名無しSUN2018/06/25(月) 00:36:48.11ID:GaqDSr9l
06/25 00:00
METAR RJNA 241500Z 00000KT 9999 FEW030 BKN/// 24/17 Q1009 RMK 1CU030
A2981=

301名無しSUN2018/06/30(土) 23:14:27.08ID:AvXE8ZIx
06/30 22:44
RJNA 301344Z 14007KT 9999 FEW020 SCT030 BKN050 27/24 Q1019 RMK
1CU020 3CU030 6SC050 A3010=

302名無しSUN2018/07/05(木) 22:51:08.13ID:Ruo1ZfiN
07/05 22:12
RJNA 051312Z 17012KT 130V190 4500 SHRA BR FEW005 SCT008 BKN015
25/24 Q1005 RMK 2ST005 3ST008 7CU015 A2970=

303名無しSUN2018/07/09(月) 01:36:13.53ID:k0lNV8Rp
07/09 01:00
METAR RJNA 081600Z 14003KT 9999 FEW020 SCT/// 25/23 Q1017 RMK 1CU020
A3005=

304名無しSUN2018/07/10(火) 23:32:09.90ID:Pvc6CIyT
07/10 23:00
METAR RJNA 101400Z 13003KT 9999 FEW030 27/24 Q1017 RMK 1CU030 A3004=

305名無しSUN2018/07/17(火) 23:39:12.96ID:VDTkY4I4
07/17 23:00
METAR RJNA 171400Z 15006KT 9999 FEW030 SCT070 BKN/// 29/26 Q1010 RMK
1CU030 3AC070 A2984=

306名無しSUN2018/07/22(日) 23:17:02.27ID:CZfIwi5L
07/22 23:00
METAR RJNA 221400Z 31005KT 270V340 9999 FEW030 BKN/// 32/21 Q1007 RMK
1CU030 A2975=

307名無しSUN2018/07/28(土) 01:11:51.30ID:NViTivuU
07/28 00:00
METAR RJNA 271500Z 23004KT 180V280 9999 FEW015 SCT025 BKN/// 27/22
Q1005 RMK 1CU015 3CU025 A2969=

308名無しSUN2018/08/06(月) 23:48:40.45ID:FJ5g0jLX
08/06 23:00
METAR RJNA 061400Z 31007KT 9999 FEW030 SCT070 30/23 Q1003 RMK 1CU030
3AC070 A2963=

309名無しSUN2018/08/08(水) 18:45:23.57ID:quvwcUod
08/08 18:00
METAR RJNA 080900Z 31017G27KT 9999 FEW030 32/21 Q0997 RMK 1CU030
A2945=

310名無しSUN2018/08/12(日) 00:00:55.02ID:YHQ50YXU
08/11 23:00
METAR RJNA 111400Z 14004KT 9999 FEW030 SCT/// 29/25 Q1006 RMK 1CU030
A2971=

311名無しSUN2018/08/18(土) 23:39:59.16ID:Ph40xBPv
08/18 23:00
METAR RJNA 181400Z 17009KT 9999 FEW020 BKN040 BKN070 24/15 Q1012 RMK
1CU020 5SC040 5AC070 A2991=

312名無しSUN2018/08/22(水) 01:02:08.31ID:cZ1xgqhn
08/22 00:00
METAR RJNA 211500Z 15009KT 130V190 9999 FEW015 BKN050 28/25 Q1012 RMK
1CU015 5SC050 A2989=

313名無しSUN2018/08/26(日) 18:01:11.50ID:PoMFKRSn
08/26 17:00
METAR RJNA 260800Z 28007KT 220V320 9999 FEW030 36/22 Q1010 RMK 1CU030
A2984=

314名無しSUN2018/09/05(水) 23:38:04.86ID:O9gY9dXV
09/05 23:00
METAR RJNA 051400Z 14004KT 9999 FEW030 SCT045 26/22 Q1005 RMK 1CU030
3SC045 A2971=

315名無しSUN2018/09/19(水) 02:40:45.07ID:uKTguBhg
09/19 02:00
METAR RJNA 181700Z 01003KT 9999 FEW030 BKN/// 21/16 Q1013 RMK 1CU030
A2993=

316名無しSUN2018/09/30(日) 23:16:05.96ID:YXULWX8M
09/30 22:00
METAR RJNA 301300Z 14029G46KT 110V170 3000 +SHRA BR FEW005 BKN008
BKN015 25/24 Q0974 RMK 2ST005 6ST008 7CU015 A2877=

14029G46KT・・・北から右回りに140度の方角に29ノット(15m/s)の風

2ST005・・・全天の2/8の雲量の層雲(ST・霧雲)が地上500フィート(150m)の高さにある
6ST008・・・全天の6/8の雲量の層雲(ST・霧雲)が地上800フィート(240m)の高さにある
7CU015・・・全天の7/8の雲量の積雲(CU・綿雲)が地上1500フィート(450m)の高さにある

317名無しSUN2018/10/08(月) 02:25:47.79ID:p5DaMQqN
10/08 02:00
METAR RJNA 071700Z 34005KT 9999 FEW030 19/16 Q1012 RMK 1CU030 A2990=

318名無しSUN2018/10/15(月) 08:57:12.74ID:yDiBNLeb
10/15 08:00
METAR RJNA 142300Z 33003KT 290V350 9999 -RA FEW030 SCT050 BKN070
17/14 Q1019 RMK 1CU030 3SC050 5AC070 A3010=

319名無しSUN2018/10/19(金) 10:37:42.42ID:XdvKS5ej
10/19 10:00
METAR RJNA 190100Z VRB01KT 9999 FEW030 SCT100 20/14 Q1016 RMK 1CU030
3AC100 A3003=

320名無しSUN2018/10/22(月) 01:58:20.10ID:jR/2vl+B
10/22 01:00
METAR RJNA 211600Z 02001KT 9999 NSC 13/09 Q1021 RMK A3015=

321名無しSUN2018/10/28(日) 01:00:08.00ID:4rNr9tfZ
10/28 00:00
METAR RJNA 271500Z 34005KT 9999 FEW030 13/09 Q1011 RMK 1CU030 A2986=

322名無しSUN2018/11/08(木) 07:18:44.14ID:WoOmyMXr
11/08 07:00
METAR RJNA 072200Z 29003KT 9999 FEW030 BKN050 15/13 Q1022 RMK 1CU030
7SC050 A3020=

323名無しSUN2018/11/19(月) 01:21:15.71ID:tYzVgzvW
11/19 01:00
METAR RJNA 181600Z VRB01KT 9999 FEW030 BKN090 14/07 Q1015 RMK 1CU030
7AC090 A2998=

324名無しSUN2018/11/22(木) 00:26:51.44ID:qLQrw1V4
11/22 00:00
METAR RJNA 211500Z 35005KT 9999 FEW025 BKN120 11/04 Q1017 RMK 1CU025
7AC120 A3005=

325名無しSUN2018/12/03(月) 02:45:27.25ID:V2vLTtP8
12/03 02:00
METAR RJNA 021700Z 34003KT 9999 FEW030 SCT080 BKN150 11/08 Q1026 RMK
1CU030 3AC080 7AC150 A3032=

326名無しSUN2018/12/08(土) 01:04:29.05ID:lXmroHR7
12/08 00:41
RJNA 071541Z 29009KT 9999 FEW030 BKN050 BKN/// 07/03 Q1019 RMK
1CU030 5SC050 A3010=

327名無しSUN2018/12/11(火) 23:54:16.35ID:NxJDH95N
12/11 23:00
METAR RJNA 111400Z 33004KT 6000 -SHRA FEW010 BKN020 BKN050 07/06
Q1018 RMK 1ST010 6CU020 7SC050 A3007=

328名無しSUN2018/12/18(火) 00:30:03.99ID:qDbGKTbl
12/18 00:00
METAR RJNA 171500Z 29008KT 9999 FEW030 SCT050 BKN080 07/03 Q1011 RMK
1CU030 3SC050 6AC080 A2986=

329名無しSUN2018/12/25(火) 02:01:00.19ID:jeCxUSx3
12/25 01:00
METAR RJNA 241600Z VRB02KT 9999 FEW030 SCT/// 01/M05 Q1022 RMK 1CU030
A3019=

330名無しSUN2018/12/29(土) 01:21:30.15ID:NTLlF2/7
12/29 01:00
METAR RJNA 281600Z 28005KT 9999 FEW030 01/M03 Q1018 RMK 1CU030 A3008=

331名無しSUN2018/12/30(日) 17:32:26.67ID:b79lI18+
スキマ

332名無しSUN2019/01/03(木) 11:15:13.41ID:NUGirsDN
千秋

333名無しSUN2019/01/05(土) 00:25:17.74ID:nIfFvd72
01/05 00:00
METAR RJNA 041500Z VRB01KT 9999 FEW030 SCT090 BKN120 05/M00 Q1022 RMK
1CU030 3AC090 7AC120 A3020=

334名無しSUN2019/01/14(月) 23:14:04.99ID:YaZMJF1j
01/14 22:00
METAR RJNA 141300Z VRB01KT 9999 FEW030 05/M01 Q1023 RMK 1CU030 A3023=

05/M01・・・気温5度 露点温度−1度

335名無しSUN2019/01/21(月) 01:34:47.16ID:H3iNvFFr
01/21 01:00
METAR RJNA 201600Z 31010KT 9999 FEW050 05/01 Q1010 RMK 1SC050 A2985=

336名無しSUN2019/01/26(土) 00:52:04.52ID:Wu0JFNpZ
01/26 00:00
METAR RJNA 251500Z VRB01KT 9999 FEW030 SCT/// 04/M03 Q1010 RMK 1CU030
A2984=

337名無しSUN2019/01/27(日) 12:12:31.15ID:lwXpZ8fp
エア

338名無しSUN2019/01/30(水) 21:45:23.20ID:yjc/ndkA
01/30 21:00
METAR RJNA 301200Z VRB02KT 9999 FEW030 04/M03 Q1021 RMK 1CU030 A3015=

339名無しSUN2019/02/01(金) 15:37:12.33ID:jgj+p34Q
木村

340名無しSUN2019/02/04(月) 10:25:57.93ID:wKKyEPkJ
02/04 10:00
METAR RJNA 040100Z 33012KT 9999 FEW010 SCT050 14/06 Q1014 RMK 1ST010
3SC050 A2996=

14/06 ・・・ 気温14度/露点温度06度 今日はあたたかい

341名無しSUN2019/02/05(火) 14:11:45.87ID:Q+WgG/3j

342名無しSUN2019/02/09(土) 13:45:59.14ID:3mTrF6KQ
02/09 13:00
METAR RJNA 090400Z 36005KT 320V040 9999 FEW030 BKN080 06/M08 Q1015
RMK 1CU030 6AC080 A2998=

343名無しSUN2019/02/14(木) 19:22:10.15ID:ZGjA5VtQ
02/14 19:00
METAR RJNA 141000Z 31012KT 9999 FEW030 BKN/// 04/M08 Q1026 RMK 1CU030
A3031=

344名無しSUN2019/02/20(水) 01:44:12.72ID:+sEsyyBP
02/20 01:00
METAR RJNA 191600Z 34008KT 9999 FEW008 BKN015 BKN025 10/09 Q1014 RMK
1ST008 5SC015 6SC025 A2995=

345名無しSUN2019/02/28(木) 00:24:43.90ID:zdqivCqc
02/28 00:00
METAR RJNA 271500Z VRB01KT 9999 FEW030 BKN120 BKN160 10/01 Q1019 RMK
1CU030 5AC120 7AC160 A3010=

346名無しSUN2019/03/04(月) 01:53:38.92ID:f6+ZseBl
03/04 01:00
METAR RJNA 031600Z 33004KT 6000 -RA FEW015 BKN030 10/09 Q1007 RMK
1SC015 7SC030 A2975=

347名無しSUN2019/03/06(水) 23:32:59.10ID:ah25GuyD
03/06 23:00
METAR RJNA 061400Z 36007KT 6000 -RA FEW010 BKN045 10/10 Q1008 RMK
1ST010 7SC045 A2977=

348名無しSUN2019/03/12(火) 00:59:44.17ID:RJyNY1AI
03/12 00:00
METAR RJNA 111500Z 28008KT 9999 FEW030 10/06 Q1006 RMK 1CU030 A2973=

349名無しSUN2019/03/13(水) 02:21:09.83ID:m/J9fX08
03/13 02:00
METAR RJNA 121700Z VRB01KT 9999 FEW030 SCT050 07/06 Q1008 RMK 1CU030
3SC050 A2979=

350名無しSUN2019/03/17(日) 01:08:49.98ID:oaydbXi/
03/17 01:00
METAR RJNA 161600Z VRB02KT 9999 FEW030 05/M01 Q1018 RMK 1CU030 A3009=

351名無しSUN2019/03/21(木) 23:50:19.06ID:+6Bx80us
03/21 23:00
METAR RJNA 211400Z VRB01KT 9999 FEW010 BKN020 BKN030 16/15 Q1005 RMK
1ST010 5SC020 7SC030 A2969=

352名無しSUN2019/03/23(土) 23:44:56.01ID:wvlW+nE+
03/23 23:00
METAR RJNA 231400Z 30006KT 9999 FEW030 05/M06 Q1014 RMK 1CU030 A2997=

05/M06 ・・・気温5度 露点温度マイナス6度 湿度45%

353名無しSUN2019/03/27(水) 00:01:46.13ID:6zoeXaHY
03/26 23:00
METAR RJNA 261400Z 35012KT 9999 FEW030 BKN060 11/03 Q1015 RMK 1CU030
5SC060 A2999=

354名無しSUN2019/03/31(日) 01:14:21.29ID:u0bi5pM7
03/31 01:00
METAR RJNA 301600Z VRB01KT 9999 FEW020 SCT120 10/09 Q1006 RMK 1CU020
4AC120 A2972=

355名無しSUN2019/04/04(木) 00:55:52.96ID:c2rKn8/8
04/04 00:00
METAR RJNA 031500Z 01004KT 9999 FEW030 05/M03 Q1020 RMK 1CU030 A3013=

356名無しSUN2019/04/08(月) 00:09:31.77ID:TNKhgMgV
04/08 00:00
METAR RJNA 071500Z 29006KT 9000 FEW020 SCT040 BKN080 16/09 Q1005 RMK
1CU020 3SC040 6AC080 A2969=

357名無しSUN2019/04/12(金) 00:48:12.44ID:kCw8KSxU
04/12 00:00
METAR RJNA 111500Z 35008KT 9999 FEW030 SCT050 BKN170 10/M05 Q1013 RMK
1CU030 3SC050 5AC170 A2992=

10/M05・・・気温10度 露点温度マイナス5度 湿度34%

358名無しSUN2019/04/21(日) 00:55:52.24ID:5hyYWOaz
04/21 00:00
METAR RJNA 201500Z 08003KT 9999 FEW010 BKN020 15/12 Q1015 RMK 1CU010
5CU020 A2998=

359名無しSUN2019/04/24(水) 14:12:16.61ID:8TVAtlG8
04/24 14:00
METAR RJNA 240500Z 14013KT 9999 -SHRA FEW010 BKN025 BKN045 19/16
Q1014 RMK 1ST010 5CU025 6SC045 A2994 MAX WIND 21KT=

360名無しSUN2019/04/30(火) 01:15:45.77ID:/6z0fT7Q
04/30 00:00
METAR RJNA 291500Z 12005KT 9000 -RA FEW010 SCT025 BKN045 14/13 Q1016
RMK 1CU010 3CU025 7SC045 A3002=

361名無しSUN2019/05/12(日) 01:39:19.38ID:0bHuP80D
05/12 01:00
METAR RJNA 111600Z 05003KT 9999 FEW030 18/13 Q1013 RMK 1CU030 A2994=

362名無しSUN2019/05/18(土) 00:32:44.88ID:v9tiawml
05/18 00:00
METAR RJNA 171500Z 16006KT 120V190 9999 FEW030 BKN/// 19/13 Q1020 RMK
1CU030 A3013=

363名無しSUN2019/05/24(金) 14:33:37.91ID:Olng1nW6
05/24 14:00
METAR RJNA 240500Z 28009KT 230V330 9999 FEW030 31/07 Q1009 RMK 1CU030
A2982=

31/07 ・・・気温31℃ 露点温度7℃ 湿度22%
空気が乾燥しています

364名無しSUN2019/05/31(金) 23:19:35.26ID:6JSrMmc7
05/31 23:00
METAR RJNA 311400Z 35006KT 9999 FEW020 BKN110 BKN150 19/16 Q1009 RMK
1CU020 5AC110 7AC150 A2981=

365名無しSUN2019/06/09(日) 01:28:18.84ID:v4Ln/D4w
06/09 01:00
METAR RJNA 081600Z 30007KT 260V320 9999 FEW030 BKN090 BKN/// 20/14
Q1004 RMK 1CU030 6AC090 A2966=

366名無しSUN2019/06/16(日) 01:26:37.72ID:QmkP5yQ0
06/16 01:00
METAR RJNA 151600Z 24004KT 200V290 9999 -SHRA FEW008 SCT025 BKN040
20/18 Q0989 RMK 1ST008 4CU025 5SC040 A2921=

新着レスの表示
レスを投稿する